| time (UTC) | temp F | wind direction | speed MPH | gust MPH | rain 1hr in | rain 24hr in | rain mn in | humidity % | barometer mb |
| 20260504170608 | 74 | 248 | 5.0 | 21.0 | 0.00 | 0.02 | 0.00 | 42 | 1006.1 |
| 20260504170508 | 74 | 277 | 8.0 | 21.0 | 0.00 | 0.02 | 0.00 | 42 | 1006.5 |
| 20260504170408 | 74 | 321 | 6.0 | 21.0 | 0.00 | 0.02 | 0.00 | 44 | 1006.5 |
| 20260504170308 | 74 | 179 | 7.0 | 21.0 | 0.00 | 0.02 | 0.00 | 44 | 1006.5 |
| 20260504170208 | 73 | 184 | 7.0 | 21.0 | 0.00 | 0.02 | 0.00 | 43 | 1006.5 |
| 20260504170108 | 73 | 201 | 9.0 | 21.0 | 0.00 | 0.02 | 0.00 | 44 | 1006.5 |
| 20260504160416 | 68 | 217 | 8.0 | 19.0 | 0.00 | 0.02 | 0.00 | 53 | 1007.5 |
| 20260504160316 | 68 | 177 | 8.0 | 19.0 | 0.00 | 0.02 | 0.00 | 54 | 1007.5 |
| 20260504160216 | 68 | 174 | 7.0 | 19.0 | 0.00 | 0.02 | 0.00 | 53 | 1007.5 |
| 20260504160116 | 68 | 195 | 7.0 | 19.0 | 0.00 | 0.02 | 0.00 | 53 | 1007.5 |
| 20260504151122 | 64 | 186 | 6.0 | 16.0 | 0.00 | 0.02 | 0.00 | 57 | 1007.5 |
| 20260504151024 | 64 | 190 | 6.0 | 16.0 | 0.00 | 0.02 | 0.00 | 57 | 1007.5 |
| 20260504150924 | 64 | 169 | 7.0 | 16.0 | 0.00 | 0.02 | 0.00 | 57 | 1007.5 |
| 20260504150824 | 64 | 197 | 9.0 | 16.0 | 0.00 | 0.02 | 0.00 | 58 | 1007.5 |
| 20260504150724 | 64 | 195 | 8.0 | 16.0 | 0.00 | 0.02 | 0.00 | 58 | 1007.8 |
| 20260504150624 | 64 | 212 | 8.0 | 16.0 | 0.00 | 0.02 | 0.00 | 58 | 1007.8 |
| 20260504150524 | 63 | 191 | 8.0 | 16.0 | 0.00 | 0.02 | 0.00 | 57 | 1007.5 |
| 20260504150424 | 63 | 187 | 10.0 | 16.0 | 0.00 | 0.02 | 0.00 | 56 | 1007.8 |
| 20260504150324 | 64 | 217 | 6.0 | 17.0 | 0.00 | 0.02 | 0.00 | 57 | 1007.8 |
| 20260504150224 | 64 | 188 | 8.0 | 17.0 | 0.00 | 0.02 | 0.00 | 58 | 1007.8 |
| 20260504150124 | 64 | 204 | 5.0 | 17.0 | 0.00 | 0.02 | 0.00 | 57 | 1007.8 |
| 20260504141330 | 61 | 180 | 7.0 | 14.0 | 0.00 | 0.02 | 0.00 | 60 | 1007.8 |
| 20260504141230 | 61 | 131 | 6.0 | 14.0 | 0.00 | 0.02 | 0.00 | 60 | 1007.8 |
| 20260504141130 | 61 | 172 | 7.0 | 14.0 | 0.00 | 0.02 | 0.00 | 60 | 1008.2 |
| 20260504141030 | 61 | 193 | 8.0 | 14.0 | 0.00 | 0.02 | 0.00 | 61 | 1008.2 |
| 20260504140932 | 61 | 205 | 9.0 | 14.0 | 0.00 | 0.02 | 0.00 | 60 | 1008.2 |
| 20260504140832 | 61 | 207 | 8.0 | 16.0 | 0.00 | 0.02 | 0.00 | 59 | 1008.2 |
| 20260504140732 | 61 | 221 | 8.0 | 16.0 | 0.00 | 0.02 | 0.00 | 59 | 1008.2 |
| 20260504140632 | 61 | 211 | 6.0 | 16.0 | 0.00 | 0.02 | 0.00 | 61 | 1008.2 |
| 20260504140532 | 61 | 180 | 6.0 | 16.0 | 0.00 | 0.02 | 0.00 | 61 | 1008.2 |
| 20260504140432 | 61 | 245 | 5.0 | 16.0 | 0.00 | 0.02 | 0.00 | 61 | 1008.2 |
| 20260504140332 | 61 | 183 | 7.0 | 16.0 | 0.00 | 0.02 | 0.00 | 61 | 1008.2 |
| 20260504140232 | 60 | 212 | 7.0 | 17.0 | 0.00 | 0.02 | 0.00 | 60 | 1008.2 |
| 20260504140132 | 60 | 190 | 6.0 | 17.0 | 0.00 | 0.02 | 0.00 | 60 | 1008.2 |
| 20260504130740 | 57 | 215 | 6.0 | 12.0 | 0.00 | 0.02 | 0.00 | 63 | 1008.5 |
| 20260504130640 | 57 | 172 | 4.0 | 12.0 | 0.00 | 0.02 | 0.00 | 65 | 1008.2 |
| 20260504130540 | 56 | 122 | 7.0 | 12.0 | 0.00 | 0.02 | 0.00 | 65 | 1008.5 |
| 20260504130440 | 56 | 156 | 7.0 | 12.0 | 0.00 | 0.02 | 0.00 | 64 | 1008.5 |
| 20260504130340 | 56 | 174 | 8.0 | 12.0 | 0.00 | 0.02 | 0.00 | 63 | 1008.5 |
| 20260504130240 | 56 | 159 | 8.0 | 12.0 | 0.00 | 0.02 | 0.00 | 64 | 1008.5 |
| 20260504130140 | 56 | 210 | 7.0 | 12.0 | 0.00 | 0.02 | 0.00 | 64 | 1008.5 |
| 20260504120248 | 52 | 181 | 6.0 | 12.0 | 0.00 | 0.02 | 0.00 | 68 | 1008.8 |
| 20260504120148 | 52 | 159 | 5.0 | 12.0 | 0.00 | 0.02 | 0.00 | 68 | 1008.8 |
| 20260504110654 | 50 | 187 | 6.0 | 9.0 | 0.00 | 0.02 | 0.00 | 70 | 1008.5 |
| 20260504110556 | 50 | 145 | 5.0 | 9.0 | 0.00 | 0.02 | 0.00 | 70 | 1008.5 |
| 20260504110456 | 50 | 207 | 6.0 | 11.0 | 0.00 | 0.02 | 0.00 | 70 | 1008.5 |
| 20260504110356 | 50 | 179 | 4.0 | 11.0 | 0.00 | 0.02 | 0.00 | 70 | 1008.5 |
| 20260504110256 | 50 | 148 | 5.0 | 11.0 | 0.00 | 0.02 | 0.00 | 70 | 1008.5 |
| 20260504110156 | 50 | 195 | 6.0 | 11.0 | 0.00 | 0.02 | 0.00 | 70 | 1008.5 |
| 20260504100550 | 50 | 214 | 5.0 | 10.0 | 0.00 | 0.02 | 0.00 | 71 | 1008.8 |
| 20260504100450 | 50 | 184 | 6.0 | 10.0 | 0.00 | 0.02 | 0.00 | 71 | 1008.8 |
| 20260504100350 | 50 | 152 | 5.0 | 9.0 | 0.00 | 0.02 | 0.00 | 71 | 1008.8 |
| 20260504100250 | 50 | 198 | 7.0 | 9.0 | 0.00 | 0.02 | 0.00 | 71 | 1008.8 |
| 20260504100150 | 50 | 172 | 4.0 | 9.0 | 0.00 | 0.02 | 0.00 | 71 | 1008.8 |
| 20260504081950 | 51 | 193 | 6.0 | 11.0 | 0.00 | 0.02 | 0.00 | 67 | 1009.5 |
| 20260504081850 | 51 | 211 | 6.0 | 11.0 | 0.00 | 0.02 | 0.00 | 67 | 1009.5 |
| 20260504081750 | 51 | 212 | 5.0 | 11.0 | 0.00 | 0.02 | 0.00 | 67 | 1009.5 |
| 20260504081650 | 51 | 205 | 6.0 | 11.0 | 0.00 | 0.02 | 0.00 | 67 | 1009.5 |
| 20260504081550 | 51 | 188 | 6.0 | 11.0 | 0.00 | 0.02 | 0.00 | 67 | 1009.5 |
| 20260504081450 | 51 | 194 | 5.0 | 11.0 | 0.00 | 0.02 | 0.00 | 67 | 1009.5 |
| 20260504081350 | 51 | 219 | 5.0 | 11.0 | 0.00 | 0.02 | 0.00 | 67 | 1009.5 |
| 20260504081250 | 51 | 172 | 6.0 | 11.0 | 0.00 | 0.02 | 0.00 | 67 | 1009.5 |
| 20260504081150 | 51 | 177 | 7.0 | 11.0 | 0.00 | 0.02 | 0.00 | 67 | 1009.5 |
| 20260504081050 | 51 | 198 | 5.0 | 11.0 | 0.00 | 0.02 | 0.00 | 67 | 1009.5 |
| 20260504080950 | 51 | 181 | 6.0 | 11.0 | 0.00 | 0.02 | 0.00 | 67 | 1009.5 |
| 20260504080850 | 51 | 204 | 6.0 | 11.0 | 0.00 | 0.02 | 0.00 | 67 | 1009.5 |
| 20260504080750 | 51 | 180 | 6.0 | 11.0 | 0.00 | 0.02 | 0.00 | 67 | 1009.9 |
| 20260504080650 | 51 | 195 | 6.0 | 11.0 | 0.00 | 0.02 | 0.00 | 67 | 1009.5 |
| 20260504080550 | 51 | 193 | 8.0 | 11.0 | 0.00 | 0.02 | 0.00 | 67 | 1009.9 |
| 20260504080450 | 51 | 172 | 4.0 | 11.0 | 0.00 | 0.02 | 0.00 | 67 | 1009.9 |
| 20260504080350 | 51 | 158 | 3.0 | 11.0 | 0.00 | 0.02 | 0.00 | 67 | 1009.9 |
| 20260504080250 | 51 | 228 | 5.0 | 11.0 | 0.00 | 0.02 | 0.00 | 67 | 1009.9 |
| 20260504080150 | 51 | 200 | 6.0 | 11.0 | 0.00 | 0.02 | 0.00 | 67 | 1009.5 |
| 20260504070350 | 52 | 146 | 6.0 | 10.0 | 0.00 | 0.02 | 0.00 | 65 | 1010.2 |
| 20260504070250 | 52 | 187 | 6.0 | 8.0 | 0.00 | 0.02 | 0.00 | 65 | 1010.2 |
| 20260504070150 | 52 | 201 | 5.0 | 8.0 | 0.00 | 0.02 | 0.00 | 65 | 1010.2 |
| 20260504060150 | 52 | 193 | 5.0 | 12.0 | 0.00 | 0.02 | 0.00 | 65 | 1010.5 |
| 20260504050750 | 53 | 207 | 5.0 | 11.0 | 0.00 | 0.02 | 0.00 | 62 | 1011.2 |
| 20260504050650 | 53 | 208 | 6.0 | 11.0 | 0.00 | 0.02 | 0.00 | 62 | 1011.2 |
| 20260504050550 | 53 | 177 | 6.0 | 11.0 | 0.00 | 0.02 | 0.00 | 62 | 1011.2 |
| 20260504050450 | 53 | 195 | 6.0 | 11.0 | 0.00 | 0.02 | 0.00 | 62 | 1011.2 |
| 20260504050350 | 53 | 210 | 6.0 | 12.0 | 0.00 | 0.02 | 0.00 | 62 | 1011.2 |
| 20260504050250 | 53 | 139 | 6.0 | 12.0 | 0.00 | 0.02 | 0.00 | 62 | 1011.2 |
| 20260504050150 | 53 | 214 | 6.0 | 12.0 | 0.00 | 0.02 | 0.00 | 62 | 1011.2 |
| 20260504045950 | 53 | 195 | 5.0 | 12.0 | 0.00 | 0.02 | 0.00 | 62 | 1011.2 |
| 20260504045850 | 53 | 150 | 6.0 | 12.0 | 0.00 | 0.02 | 0.00 | 62 | 1011.2 |
| 20260504045750 | 53 | 142 | 6.0 | 12.0 | 0.00 | 0.02 | 0.00 | 62 | 1011.2 |
| 20260504045650 | 53 | 128 | 6.0 | 12.0 | 0.00 | 0.02 | 0.00 | 62 | 1011.2 |
| 20260504045550 | 53 | 155 | 5.0 | 12.0 | 0.00 | 0.02 | 0.00 | 62 | 1011.2 |
| 20260504045450 | 53 | 143 | 7.0 | 12.0 | 0.00 | 0.02 | 0.00 | 62 | 1011.2 |
| 20260504045350 | 53 | 163 | 6.0 | 12.0 | 0.00 | 0.02 | 0.00 | 62 | 1011.2 |
| 20260504045250 | 53 | 165 | 7.0 | 12.0 | 0.00 | 0.02 | 0.00 | 62 | 1011.2 |
| 20260504045150 | 53 | 169 | 6.0 | 12.0 | 0.00 | 0.02 | 0.00 | 62 | 1011.2 |
| 20260504045050 | 53 | 160 | 6.0 | 12.0 | 0.00 | 0.02 | 0.00 | 62 | 1011.2 |
| 20260504044950 | 53 | 259 | 7.0 | 12.0 | 0.00 | 0.02 | 0.00 | 62 | 1011.2 |
| 20260504044850 | 53 | 145 | 7.0 | 12.0 | 0.00 | 0.02 | 0.00 | 61 | 1011.2 |
| 20260504044750 | 53 | 152 | 4.0 | 12.0 | 0.00 | 0.02 | 0.00 | 62 | 1011.2 |
| 20260504044650 | 53 | 193 | 6.0 | 12.0 | 0.00 | 0.02 | 0.00 | 62 | 1011.2 |
| 20260504044550 | 53 | 136 | 6.0 | 12.0 | 0.00 | 0.02 | 0.00 | 62 | 1011.2 |
| 20260504044450 | 53 | 187 | 6.0 | 12.0 | 0.00 | 0.02 | 0.00 | 62 | 1011.2 |
| 20260504044350 | 53 | 152 | 7.0 | 11.0 | 0.00 | 0.02 | 0.00 | 62 | 1011.2 |
| 20260504044250 | 53 | 145 | 7.0 | 11.0 | 0.00 | 0.02 | 0.00 | 62 | 1011.2 |
| 20260504044150 | 53 | 143 | 5.0 | 9.0 | 0.00 | 0.02 | 0.00 | 62 | 1011.2 |
| 20260504044050 | 53 | 163 | 6.0 | 9.0 | 0.00 | 0.02 | 0.00 | 62 | 1011.2 |
| 20260504043950 | 53 | 179 | 5.0 | 9.0 | 0.00 | 0.02 | 0.00 | 63 | 1011.2 |
| 20260504043850 | 53 | 150 | 5.0 | 9.0 | 0.00 | 0.02 | 0.00 | 63 | 1011.2 |
| 20260504043750 | 53 | 204 | 5.0 | 9.0 | 0.00 | 0.02 | 0.00 | 63 | 1011.2 |
| 20260504043650 | 53 | 156 | 6.0 | 9.0 | 0.00 | 0.02 | 0.00 | 63 | 1011.2 |
| 20260504043550 | 53 | 169 | 5.0 | 9.0 | 0.00 | 0.02 | 0.00 | 63 | 1011.2 |
| 20260504043450 | 53 | 132 | 4.0 | 10.0 | 0.00 | 0.02 | 0.00 | 63 | 1011.2 |
| 20260504043350 | 53 | 191 | 6.0 | 11.0 | 0.00 | 0.02 | 0.00 | 63 | 1011.2 |
| 20260504043250 | 53 | 170 | 5.0 | 12.0 | 0.00 | 0.02 | 0.00 | 63 | 1011.6 |
| 20260504043150 | 53 | 158 | 4.0 | 12.0 | 0.00 | 0.02 | 0.00 | 63 | 1011.2 |
| 20260504043050 | 53 | 138 | 6.0 | 12.0 | 0.00 | 0.02 | 0.00 | 63 | 1011.6 |
| 20260504042950 | 53 | 163 | 3.0 | 12.0 | 0.00 | 0.02 | 0.00 | 63 | 1011.6 |
| 20260504042850 | 53 | 158 | 4.0 | 12.0 | 0.00 | 0.02 | 0.00 | 63 | 1011.6 |
| 20260504042750 | 53 | 146 | 6.0 | 12.0 | 0.00 | 0.02 | 0.00 | 63 | 1011.6 |
| 20260504042650 | 53 | 150 | 5.0 | 12.0 | 0.00 | 0.02 | 0.00 | 63 | 1011.6 |
| 20260504042550 | 53 | 179 | 6.0 | 12.0 | 0.00 | 0.02 | 0.00 | 63 | 1011.6 |
| 20260504042450 | 53 | 165 | 8.0 | 12.0 | 0.00 | 0.02 | 0.00 | 62 | 1011.6 |
| 20260504042350 | 53 | 170 | 7.0 | 12.0 | 0.00 | 0.02 | 0.00 | 63 | 1011.6 |
| 20260504042250 | 53 | 191 | 4.0 | 12.0 | 0.00 | 0.02 | 0.00 | 63 | 1011.6 |
| 20260504042150 | 53 | 117 | 4.0 | 12.0 | 0.00 | 0.02 | 0.00 | 63 | 1011.6 |
| 20260504042050 | 53 | 180 | 6.0 | 12.0 | 0.00 | 0.02 | 0.00 | 63 | 1011.6 |
| 20260504041951 | 53 | 166 | 7.0 | 12.0 | 0.00 | 0.02 | 0.00 | 63 | 1011.6 |
| 20260504041850 | 53 | 156 | 6.0 | 12.0 | 0.00 | 0.02 | 0.00 | 63 | 1011.6 |
| 20260504041750 | 53 | 173 | 6.0 | 12.0 | 0.00 | 0.02 | 0.00 | 63 | 1011.6 |
| 20260504041650 | 53 | 152 | 9.0 | 12.0 | 0.00 | 0.02 | 0.00 | 63 | 1011.6 |
| 20260504041550 | 53 | 166 | 6.0 | 12.0 | 0.00 | 0.02 | 0.00 | 64 | 1011.6 |
| 20260504041450 | 53 | 204 | 5.0 | 12.0 | 0.00 | 0.02 | 0.00 | 63 | 1011.6 |
| 20260504041350 | 53 | 121 | 4.0 | 12.0 | 0.00 | 0.02 | 0.00 | 64 | 1011.6 |
| 20260504041250 | 53 | 180 | 6.0 | 12.0 | 0.00 | 0.02 | 0.00 | 64 | 1011.6 |
| 20260504041150 | 53 | 169 | 8.0 | 12.0 | 0.00 | 0.02 | 0.00 | 63 | 1011.6 |
| 20260504041050 | 53 | 160 | 5.0 | 10.0 | 0.00 | 0.02 | 0.00 | 64 | 1011.6 |
| 20260504040950 | 53 | 122 | 4.0 | 9.0 | 0.00 | 0.02 | 0.00 | 64 | 1011.9 |
| 20260504040850 | 53 | 138 | 3.0 | 9.0 | 0.00 | 0.02 | 0.00 | 64 | 1011.6 |
| 20260504040750 | 53 | 153 | 4.0 | 10.0 | 0.00 | 0.02 | 0.00 | 64 | 1011.6 |
| 20260504040650 | 53 | 146 | 6.0 | 10.0 | 0.00 | 0.02 | 0.00 | 64 | 1011.9 |
| 20260504040550 | 53 | 205 | 6.0 | 10.0 | 0.00 | 0.02 | 0.00 | 63 | 1011.9 |
| 20260504040450 | 53 | 169 | 7.0 | 10.0 | 0.00 | 0.02 | 0.00 | 63 | 1011.9 |
| 20260504040350 | 53 | 177 | 5.0 | 12.0 | 0.00 | 0.02 | 0.00 | 63 | 1011.9 |
| 20260504040250 | 53 | 211 | 6.0 | 12.0 | 0.00 | 0.02 | 0.00 | 63 | 1011.9 |
| 20260504040150 | 53 | 187 | 5.0 | 12.0 | 0.00 | 0.02 | 0.00 | 63 | 1011.9 |
| 20260504040050 | 53 | 166 | 7.0 | 12.0 | 0.00 | 0.02 | 0.00 | 63 | 1011.9 |
| 20260504035950 | 53 | 156 | 7.0 | 12.0 | 0.00 | 0.02 | 0.00 | 64 | 1011.9 |
| 20260504035850 | 53 | 160 | 6.0 | 12.0 | 0.00 | 0.00 | 0.02 | 63 | 1011.9 |
| 20260504035750 | 53 | 139 | 4.0 | 12.0 | 0.00 | 0.00 | 0.02 | 64 | 1011.9 |
| 20260504035650 | 53 | 215 | 4.0 | 12.0 | 0.00 | 0.00 | 0.02 | 63 | 1011.9 |
| 20260504035550 | 53 | 181 | 6.0 | 12.0 | 0.00 | 0.00 | 0.02 | 63 | 1011.9 |
| 20260504035450 | 53 | 177 | 6.0 | 12.0 | 0.00 | 0.00 | 0.02 | 63 | 1011.9 |
| 20260504035350 | 53 | 184 | 5.0 | 12.0 | 0.00 | 0.00 | 0.02 | 64 | 1011.9 |
| 20260504035250 | 53 | 183 | 5.0 | 12.0 | 0.00 | 0.00 | 0.02 | 63 | 1011.9 |
| 20260504035150 | 53 | 149 | 5.0 | 12.0 | 0.00 | 0.00 | 0.02 | 63 | 1011.9 |
| 20260504035050 | 53 | 145 | 5.0 | 12.0 | 0.00 | 0.00 | 0.02 | 64 | 1011.9 |
| 20260504034950 | 53 | 166 | 6.0 | 12.0 | 0.00 | 0.00 | 0.02 | 64 | 1011.9 |
| 20260504034850 | 53 | 150 | 5.0 | 12.0 | 0.00 | 0.00 | 0.02 | 64 | 1011.9 |
| 20260504034750 | 53 | 208 | 7.0 | 12.0 | 0.00 | 0.00 | 0.02 | 63 | 1011.9 |
| 20260504034650 | 53 | 165 | 6.0 | 12.0 | 0.00 | 0.00 | 0.02 | 64 | 1011.9 |
| 20260504034550 | 53 | 165 | 6.0 | 11.0 | 0.00 | 0.00 | 0.02 | 63 | 1011.9 |
| 20260504034450 | 53 | 183 | 5.0 | 11.0 | 0.00 | 0.00 | 0.02 | 64 | 1011.9 |
| 20260504034350 | 53 | 155 | 6.0 | 11.0 | 0.00 | 0.00 | 0.02 | 64 | 1011.9 |
| 20260504034250 | 53 | 160 | 6.0 | 11.0 | 0.00 | 0.00 | 0.02 | 64 | 1011.9 |
| 20260504034150 | 52 | 177 | 6.0 | 11.0 | 0.00 | 0.00 | 0.02 | 64 | 1011.9 |
| 20260504034050 | 52 | 120 | 6.0 | 11.0 | 0.00 | 0.00 | 0.02 | 65 | 1011.9 |
| 20260504033950 | 52 | 195 | 7.0 | 11.0 | 0.00 | 0.00 | 0.02 | 64 | 1011.9 |
| 20260504033850 | 52 | 142 | 6.0 | 14.0 | 0.00 | 0.00 | 0.02 | 64 | 1011.9 |
| 20260504033750 | 52 | 174 | 5.0 | 14.0 | 0.00 | 0.00 | 0.02 | 65 | 1011.9 |
| 20260504033650 | 52 | 187 | 6.0 | 14.0 | 0.00 | 0.00 | 0.02 | 65 | 1011.9 |
| 20260504033550 | 52 | 138 | 6.0 | 14.0 | 0.00 | 0.00 | 0.02 | 65 | 1011.9 |
| 20260504033450 | 52 | 149 | 6.0 | 14.0 | 0.00 | 0.00 | 0.02 | 65 | 1011.9 |
| 20260504033350 | 52 | 132 | 7.0 | 14.0 | 0.00 | 0.00 | 0.02 | 65 | 1011.9 |
| 20260504033250 | 52 | 180 | 4.0 | 14.0 | 0.00 | 0.00 | 0.02 | 66 | 1011.9 |
| 20260504033150 | 52 | 156 | 5.0 | 14.0 | 0.00 | 0.00 | 0.02 | 65 | 1011.9 |
| 20260504033050 | 52 | 177 | 5.0 | 14.0 | 0.00 | 0.00 | 0.02 | 65 | 1012.2 |
| 20260504032950 | 52 | 195 | 7.0 | 14.0 | 0.00 | 0.00 | 0.02 | 65 | 1011.9 |
| 20260504032850 | 52 | 149 | 5.0 | 10.0 | 0.00 | 0.00 | 0.02 | 66 | 1012.2 |
| 20260504032750 | 52 | 131 | 4.0 | 10.0 | 0.00 | 0.00 | 0.02 | 66 | 1012.2 |
| 20260504032650 | 52 | 158 | 5.0 | 10.0 | 0.00 | 0.00 | 0.02 | 66 | 1012.2 |
| 20260504032550 | 52 | 165 | 4.0 | 10.0 | 0.00 | 0.00 | 0.02 | 66 | 1012.2 |
| 20260504032450 | 52 | 139 | 5.0 | 10.0 | 0.00 | 0.00 | 0.02 | 66 | 1012.2 |
| 20260504032350 | 52 | 86 | 5.0 | 10.0 | 0.00 | 0.00 | 0.02 | 66 | 1012.2 |
| 20260504032250 | 52 | 125 | 5.0 | 10.0 | 0.00 | 0.00 | 0.02 | 66 | 1012.2 |
| 20260504032150 | 52 | 84 | 5.0 | 10.0 | 0.00 | 0.00 | 0.02 | 66 | 1012.2 |
| 20260504032050 | 52 | 124 | 5.0 | 10.0 | 0.00 | 0.00 | 0.02 | 66 | 1012.2 |
| 20260504031950 | 52 | 158 | 7.0 | 10.0 | 0.00 | 0.00 | 0.02 | 66 | 1012.2 |
| 20260504031850 | 52 | 148 | 4.0 | 10.0 | 0.00 | 0.00 | 0.02 | 66 | 1012.2 |
| 20260504031750 | 52 | 141 | 4.0 | 10.0 | 0.00 | 0.00 | 0.02 | 66 | 1012.2 |
| 20260504031650 | 52 | 158 | 4.0 | 10.0 | 0.00 | 0.00 | 0.02 | 66 | 1012.2 |
| 20260504031550 | 52 | 155 | 4.0 | 10.0 | 0.00 | 0.00 | 0.02 | 66 | 1012.2 |
| 20260504031450 | 52 | 141 | 5.0 | 10.0 | 0.00 | 0.00 | 0.02 | 66 | 1012.2 |
| 20260504031350 | 52 | 111 | 4.0 | 10.0 | 0.00 | 0.00 | 0.02 | 66 | 1012.2 |
| 20260504031250 | 52 | 142 | 6.0 | 11.0 | 0.00 | 0.00 | 0.02 | 65 | 1012.2 |
| 20260504031150 | 52 | 150 | 6.0 | 11.0 | 0.00 | 0.00 | 0.02 | 66 | 1012.2 |
| 20260504031050 | 52 | 143 | 5.0 | 11.0 | 0.00 | 0.00 | 0.02 | 66 | 1012.2 |
| 20260504030950 | 52 | 136 | 5.0 | 11.0 | 0.00 | 0.00 | 0.02 | 66 | 1012.2 |
| 20260504030850 | 52 | 135 | 5.0 | 11.0 | 0.00 | 0.00 | 0.02 | 65 | 1012.2 |
| 20260504030750 | 52 | 148 | 5.0 | 11.0 | 0.00 | 0.00 | 0.02 | 66 | 1012.2 |
| 20260504030650 | 52 | 153 | 5.0 | 11.0 | 0.00 | 0.00 | 0.02 | 66 | 1012.2 |
| 20260504030550 | 52 | 135 | 8.0 | 11.0 | 0.00 | 0.00 | 0.02 | 65 | 1012.2 |
| 20260504030450 | 52 | 146 | 6.0 | 11.0 | 0.00 | 0.00 | 0.02 | 66 | 1012.2 |
| 20260504030350 | 52 | 174 | 7.0 | 11.0 | 0.00 | 0.00 | 0.02 | 66 | 1012.2 |
| 20260504030250 | 52 | 152 | 4.0 | 10.0 | 0.00 | 0.00 | 0.02 | 67 | 1012.2 |
| 20260504030150 | 52 | 141 | 4.0 | 10.0 | 0.00 | 0.00 | 0.02 | 67 | 1012.6 |
| 20260504030050 | 52 | 155 | 4.0 | 10.0 | 0.00 | 0.00 | 0.02 | 66 | 1012.6 |
| 20260504025950 | 52 | 156 | 5.0 | 10.0 | 0.00 | 0.00 | 0.02 | 67 | 1012.6 |
| 20260504025850 | 52 | 135 | 6.0 | 10.0 | 0.00 | 0.00 | 0.02 | 66 | 1012.6 |
| 20260504025750 | 52 | 117 | 4.0 | 10.0 | 0.00 | 0.00 | 0.02 | 66 | 1012.6 |
| 20260504025650 | 52 | 158 | 7.0 | 10.0 | 0.00 | 0.00 | 0.02 | 66 | 1012.6 |
| 20260504025550 | 52 | 128 | 5.0 | 11.0 | 0.00 | 0.00 | 0.02 | 67 | 1012.6 |
| 20260504025450 | 52 | 145 | 5.0 | 11.0 | 0.00 | 0.00 | 0.02 | 67 | 1012.6 |
| 20260504025350 | 52 | 166 | 4.0 | 11.0 | 0.00 | 0.00 | 0.02 | 67 | 1012.6 |
| 20260504025250 | 52 | 103 | 4.0 | 11.0 | 0.00 | 0.00 | 0.02 | 67 | 1012.6 |
| 20260504025150 | 52 | 131 | 6.0 | 11.0 | 0.00 | 0.00 | 0.02 | 66 | 1012.6 |
| 20260504025050 | 52 | 166 | 7.0 | 11.0 | 0.00 | 0.00 | 0.02 | 66 | 1012.6 |
| 20260504024950 | 52 | 149 | 4.0 | 11.0 | 0.00 | 0.00 | 0.02 | 67 | 1012.6 |
| 20260504024850 | 52 | 158 | 6.0 | 11.0 | 0.00 | 0.00 | 0.02 | 67 | 1012.6 |
| 20260504024750 | 52 | 139 | 5.0 | 11.0 | 0.00 | 0.00 | 0.02 | 67 | 1012.6 |
| 20260504024650 | 52 | 162 | 7.0 | 11.0 | 0.00 | 0.00 | 0.02 | 67 | 1012.6 |
| 20260504024550 | 51 | 176 | 6.0 | 11.0 | 0.00 | 0.00 | 0.02 | 67 | 1012.6 |
| 20260504024450 | 51 | 159 | 8.0 | 11.0 | 0.00 | 0.00 | 0.02 | 67 | 1012.6 |
| 20260504024350 | 51 | 143 | 7.0 | 11.0 | 0.00 | 0.00 | 0.02 | 67 | 1012.6 |
| 20260504024250 | 51 | 143 | 5.0 | 10.0 | 0.00 | 0.00 | 0.02 | 68 | 1012.6 |
| 20260504024150 | 51 | 128 | 7.0 | 10.0 | 0.00 | 0.00 | 0.02 | 68 | 1012.6 |
| 20260504024050 | 51 | 149 | 5.0 | 10.0 | 0.00 | 0.00 | 0.02 | 69 | 1012.6 |
| 20260504023950 | 51 | 118 | 6.0 | 10.0 | 0.00 | 0.00 | 0.02 | 68 | 1012.6 |
| 20260504023850 | 51 | 152 | 5.0 | 12.0 | 0.00 | 0.00 | 0.02 | 69 | 1012.6 |
| 20260504023750 | 51 | 145 | 7.0 | 12.0 | 0.00 | 0.00 | 0.02 | 68 | 1012.6 |
| 20260504023650 | 51 | 149 | 4.0 | 12.0 | 0.00 | 0.00 | 0.02 | 69 | 1012.6 |
| 20260504023550 | 51 | 107 | 6.0 | 12.0 | 0.00 | 0.00 | 0.02 | 69 | 1012.6 |
| 20260504023450 | 51 | 149 | 6.0 | 12.0 | 0.00 | 0.00 | 0.02 | 69 | 1012.6 |
| 20260504023350 | 51 | 160 | 7.0 | 12.0 | 0.00 | 0.00 | 0.02 | 69 | 1012.6 |
| 20260504023250 | 51 | 108 | 5.0 | 12.0 | 0.00 | 0.00 | 0.02 | 70 | 1012.6 |
| 20260504023150 | 51 | 145 | 4.0 | 12.0 | 0.00 | 0.00 | 0.02 | 70 | 1012.6 |
| 20260504023050 | 51 | 152 | 6.0 | 12.0 | 0.00 | 0.00 | 0.02 | 69 | 1012.6 |
| 20260504022950 | 51 | 177 | 8.0 | 12.0 | 0.00 | 0.00 | 0.02 | 69 | 1012.6 |
| 20260504022850 | 51 | 135 | 6.0 | 10.0 | 0.00 | 0.00 | 0.02 | 70 | 1012.6 |
| 20260504022750 | 51 | 217 | 5.0 | 10.0 | 0.00 | 0.00 | 0.02 | 70 | 1012.6 |
| 20260504022650 | 51 | 176 | 8.0 | 10.0 | 0.00 | 0.00 | 0.02 | 70 | 1012.6 |
| 20260504022550 | 51 | 150 | 6.0 | 10.0 | 0.00 | 0.00 | 0.02 | 71 | 1012.6 |
| 20260504022450 | 51 | 136 | 5.0 | 10.0 | 0.00 | 0.00 | 0.02 | 71 | 1012.6 |
| 20260504022350 | 51 | 124 | 4.0 | 10.0 | 0.00 | 0.00 | 0.02 | 71 | 1012.6 |
| 20260504022250 | 51 | 143 | 5.0 | 10.0 | 0.00 | 0.00 | 0.02 | 71 | 1012.6 |
| 20260504022150 | 51 | 153 | 6.0 | 10.0 | 0.00 | 0.00 | 0.02 | 71 | 1012.6 |
| 20260504022050 | 51 | 131 | 7.0 | 10.0 | 0.00 | 0.00 | 0.02 | 71 | 1012.6 |
| 20260504021950 | 51 | 149 | 6.0 | 10.0 | 0.00 | 0.00 | 0.02 | 71 | 1012.6 |
| 20260504021850 | 51 | 172 | 5.0 | 10.0 | 0.00 | 0.00 | 0.02 | 71 | 1012.6 |
| 20260504021750 | 51 | 162 | 6.0 | 10.0 | 0.00 | 0.00 | 0.02 | 72 | 1012.6 |
| 20260504021650 | 51 | 131 | 5.0 | 10.0 | 0.00 | 0.00 | 0.02 | 71 | 1012.6 |
| 20260504021550 | 51 | 115 | 7.0 | 10.0 | 0.00 | 0.00 | 0.02 | 72 | 1012.6 |
| 20260504021450 | 51 | 114 | 6.0 | 10.0 | 0.00 | 0.00 | 0.02 | 72 | 1012.6 |
| 20260504021350 | 51 | 158 | 7.0 | 10.0 | 0.00 | 0.00 | 0.02 | 72 | 1012.6 |
| 20260504021250 | 51 | 128 | 5.0 | 11.0 | 0.00 | 0.00 | 0.02 | 73 | 1012.6 |
| 20260504021150 | 51 | 146 | 6.0 | 11.0 | 0.00 | 0.00 | 0.02 | 73 | 1012.6 |
| 20260504021050 | 51 | 138 | 5.0 | 11.0 | 0.00 | 0.00 | 0.02 | 73 | 1012.6 |
| 20260504020950 | 51 | 146 | 4.0 | 11.0 | 0.00 | 0.00 | 0.02 | 73 | 1012.6 |
| 20260504020850 | 50 | 160 | 7.0 | 11.0 | 0.00 | 0.00 | 0.02 | 72 | 1012.6 |
| 20260504020750 | 50 | 118 | 7.0 | 11.0 | 0.00 | 0.00 | 0.02 | 73 | 1012.6 |
| 20260504020650 | 51 | 143 | 6.0 | 11.0 | 0.00 | 0.00 | 0.02 | 73 | 1012.6 |
| 20260504020550 | 51 | 117 | 5.0 | 11.0 | 0.00 | 0.00 | 0.02 | 73 | 1012.6 |
| 20260504020450 | 50 | 138 | 7.0 | 11.0 | 0.00 | 0.00 | 0.02 | 72 | 1012.6 |
| 20260504020350 | 50 | 159 | 8.0 | 11.0 | 0.00 | 0.00 | 0.02 | 72 | 1012.6 |
| 20260504020250 | 50 | 100 | 6.0 | 10.0 | 0.00 | 0.00 | 0.02 | 73 | 1012.6 |
| 20260504020150 | 50 | 115 | 4.0 | 10.0 | 0.00 | 0.00 | 0.02 | 73 | 1012.6 |
| 20260504020050 | 50 | 212 | 6.0 | 10.0 | 0.00 | 0.00 | 0.02 | 73 | 1012.6 |
| 20260504015950 | 50 | 160 | 7.0 | 10.0 | 0.00 | 0.00 | 0.02 | 73 | 1012.6 |
| 20260504015850 | 50 | 146 | 7.0 | 10.0 | 0.00 | 0.00 | 0.02 | 73 | 1012.6 |
| 20260504015750 | 50 | 176 | 7.0 | 10.0 | 0.00 | 0.00 | 0.02 | 73 | 1012.6 |
| 20260504015650 | 50 | 167 | 6.0 | 12.0 | 0.00 | 0.00 | 0.02 | 74 | 1012.6 |
| 20260504015550 | 50 | 155 | 5.0 | 12.0 | 0.00 | 0.00 | 0.02 | 74 | 1012.6 |
| 20260504015450 | 50 | 121 | 5.0 | 12.0 | 0.00 | 0.00 | 0.02 | 74 | 1012.6 |
| 20260504015350 | 50 | 181 | 6.0 | 12.0 | 0.00 | 0.00 | 0.02 | 74 | 1012.6 |
| 20260504015250 | 50 | 158 | 6.0 | 12.0 | 0.00 | 0.00 | 0.02 | 74 | 1012.6 |
| 20260504015150 | 50 | 143 | 7.0 | 12.0 | 0.00 | 0.00 | 0.02 | 74 | 1012.6 |
| 20260504015050 | 50 | 107 | 5.0 | 12.0 | 0.00 | 0.00 | 0.02 | 74 | 1012.6 |
| 20260504014950 | 50 | 127 | 6.0 | 12.0 | 0.00 | 0.00 | 0.02 | 74 | 1012.6 |
| 20260504014850 | 50 | 139 | 7.0 | 12.0 | 0.00 | 0.00 | 0.02 | 74 | 1012.6 |
| 20260504014750 | 50 | 156 | 9.0 | 12.0 | 0.00 | 0.00 | 0.02 | 73 | 1012.6 |
| 20260504014650 | 50 | 108 | 5.0 | 11.0 | 0.00 | 0.00 | 0.02 | 74 | 1012.6 |
| 20260504014550 | 50 | 143 | 6.0 | 11.0 | 0.00 | 0.00 | 0.02 | 74 | 1012.6 |
| 20260504014450 | 50 | 127 | 6.0 | 9.0 | 0.00 | 0.00 | 0.02 | 74 | 1012.6 |
| 20260504014350 | 50 | 177 | 6.0 | 9.0 | 0.00 | 0.00 | 0.02 | 74 | 1012.6 |
| 20260504014250 | 50 | 179 | 6.0 | 9.0 | 0.00 | 0.00 | 0.02 | 74 | 1012.6 |
| 20260504014150 | 50 | 150 | 5.0 | 9.0 | 0.00 | 0.00 | 0.02 | 74 | 1012.6 |
| 20260504014050 | 50 | 150 | 6.0 | 9.0 | 0.00 | 0.00 | 0.02 | 74 | 1012.6 |
| 20260504013950 | 50 | 128 | 4.0 | 9.0 | 0.00 | 0.00 | 0.02 | 75 | 1012.6 |
| 20260504013850 | 50 | 148 | 5.0 | 9.0 | 0.00 | 0.00 | 0.02 | 75 | 1012.6 |
| 20260504013750 | 50 | 96 | 5.0 | 9.0 | 0.00 | 0.00 | 0.02 | 75 | 1012.6 |
| 20260504013650 | 50 | 136 | 6.0 | 9.0 | 0.00 | 0.00 | 0.02 | 75 | 1012.6 |
| 20260504013550 | 50 | 143 | 5.0 | 8.0 | 0.00 | 0.00 | 0.02 | 75 | 1012.6 |
| 20260504013450 | 50 | 165 | 5.0 | 8.0 | 0.00 | 0.00 | 0.02 | 75 | 1012.6 |
| 20260504013350 | 50 | 110 | 5.0 | 8.0 | 0.00 | 0.00 | 0.02 | 75 | 1012.6 |
| 20260504013250 | 50 | 108 | 5.0 | 9.0 | 0.00 | 0.00 | 0.02 | 75 | 1012.6 |
| 20260504013150 | 50 | 145 | 4.0 | 9.0 | 0.00 | 0.00 | 0.02 | 76 | 1012.6 |
| 20260504013050 | 50 | 132 | 4.0 | 9.0 | 0.00 | 0.00 | 0.02 | 75 | 1012.6 |
| 20260504012950 | 50 | 149 | 4.0 | 9.0 | 0.00 | 0.00 | 0.02 | 75 | 1012.6 |
| 20260504012850 | 50 | 132 | 5.0 | 9.0 | 0.00 | 0.00 | 0.02 | 75 | 1012.6 |
| 20260504012750 | 50 | 132 | 5.0 | 9.0 | 0.00 | 0.00 | 0.02 | 75 | 1012.6 |
| 20260504012650 | 50 | 136 | 7.0 | 9.0 | 0.00 | 0.00 | 0.02 | 75 | 1012.6 |
| 20260504012550 | 50 | 132 | 5.0 | 9.0 | 0.00 | 0.00 | 0.02 | 75 | 1012.6 |
| 20260504012450 | 50 | 153 | 5.0 | 9.0 | 0.00 | 0.00 | 0.02 | 75 | 1012.6 |
| 20260504012350 | 50 | 128 | 7.0 | 9.0 | 0.00 | 0.00 | 0.02 | 75 | 1012.6 |
| 20260504012250 | 50 | 152 | 5.0 | 9.0 | 0.00 | 0.00 | 0.02 | 75 | 1012.6 |
| 20260504012150 | 50 | 138 | 5.0 | 9.0 | 0.00 | 0.00 | 0.02 | 75 | 1012.6 |
| 20260504012050 | 50 | 134 | 4.0 | 9.0 | 0.00 | 0.00 | 0.02 | 75 | 1012.6 |
| 20260504011950 | 50 | 139 | 6.0 | 9.0 | 0.00 | 0.00 | 0.02 | 75 | 1012.6 |
| 20260504011850 | 50 | 134 | 6.0 | 9.0 | 0.00 | 0.00 | 0.02 | 75 | 1012.6 |
| 20260504011750 | 50 | 150 | 6.0 | 9.0 | 0.00 | 0.00 | 0.02 | 75 | 1012.6 |
| 20260504011650 | 50 | 142 | 6.0 | 9.0 | 0.00 | 0.00 | 0.02 | 74 | 1012.6 |
| 20260504011550 | 50 | 136 | 6.0 | 9.0 | 0.00 | 0.00 | 0.02 | 75 | 1012.6 |
| 20260504011450 | 50 | 160 | 5.0 | 9.0 | 0.00 | 0.00 | 0.02 | 75 | 1012.6 |
| 20260504011350 | 50 | 128 | 6.0 | 9.0 | 0.00 | 0.00 | 0.02 | 75 | 1012.6 |
| 20260504011250 | 50 | 138 | 5.0 | 9.0 | 0.00 | 0.00 | 0.02 | 76 | 1012.6 |
| 20260504011150 | 50 | 129 | 5.0 | 10.0 | 0.00 | 0.00 | 0.02 | 76 | 1012.6 |
| 20260504011050 | 50 | 148 | 5.0 | 10.0 | 0.00 | 0.00 | 0.02 | 76 | 1012.6 |
| 20260504010950 | 50 | 158 | 5.0 | 10.0 | 0.00 | 0.00 | 0.02 | 76 | 1012.6 |
| 20260504010850 | 50 | 153 | 4.0 | 10.0 | 0.00 | 0.00 | 0.02 | 76 | 1012.6 |
| 20260504010750 | 50 | 177 | 5.0 | 10.0 | 0.00 | 0.00 | 0.02 | 76 | 1012.6 |
| 20260504010650 | 50 | 153 | 6.0 | 10.0 | 0.00 | 0.00 | 0.02 | 76 | 1012.6 |
| 20260504010550 | 50 | 153 | 4.0 | 10.0 | 0.00 | 0.00 | 0.02 | 76 | 1012.6 |
| 20260504010450 | 50 | 69 | 2.0 | 10.0 | 0.00 | 0.00 | 0.02 | 76 | 1012.6 |
| 20260504010350 | 50 | 148 | 6.0 | 10.0 | 0.00 | 0.00 | 0.02 | 76 | 1012.6 |
| 20260504010250 | 50 | 131 | 7.0 | 10.0 | 0.00 | 0.00 | 0.02 | 76 | 1012.6 |
| 20260504010150 | 50 | 110 | 6.0 | 9.0 | 0.00 | 0.00 | 0.02 | 76 | 1012.6 |
| 20260504010050 | 50 | 167 | 6.0 | 9.0 | 0.00 | 0.00 | 0.02 | 76 | 1012.6 |
| 20260504005950 | 50 | 86 | 5.0 | 9.0 | 0.00 | 0.00 | 0.02 | 77 | 1012.6 |
| 20260504005850 | 50 | 114 | 5.0 | 9.0 | 0.00 | 0.00 | 0.02 | 76 | 1012.6 |
| 20260504005750 | 50 | 141 | 5.0 | 9.0 | 0.00 | 0.00 | 0.02 | 76 | 1012.6 |
| 20260504005650 | 50 | 148 | 6.0 | 9.0 | 0.00 | 0.00 | 0.02 | 76 | 1012.6 |
| 20260504005550 | 50 | 149 | 6.0 | 9.0 | 0.00 | 0.00 | 0.02 | 76 | 1012.6 |
| 20260504005450 | 50 | 134 | 6.0 | 8.0 | 0.00 | 0.00 | 0.02 | 76 | 1012.6 |
| 20260504005350 | 50 | 160 | 6.0 | 8.0 | 0.00 | 0.00 | 0.02 | 76 | 1012.6 |
| 20260504005250 | 50 | 127 | 6.0 | 8.0 | 0.00 | 0.00 | 0.02 | 77 | 1012.6 |
| 20260504005150 | 50 | 158 | 5.0 | 8.0 | 0.00 | 0.00 | 0.02 | 77 | 1012.6 |
| 20260504005050 | 50 | 129 | 2.0 | 8.0 | 0.00 | 0.00 | 0.02 | 77 | 1012.6 |
| 20260504004950 | 50 | 68 | 5.0 | 8.0 | 0.00 | 0.00 | 0.02 | 77 | 1012.6 |
| 20260504004850 | 50 | 143 | 5.0 | 8.0 | 0.00 | 0.00 | 0.02 | 77 | 1012.6 |
| 20260504004750 | 50 | 89 | 1.0 | 8.0 | 0.00 | 0.00 | 0.02 | 78 | 1012.9 |
| 20260504004650 | 50 | 46 | 5.0 | 8.0 | 0.00 | 0.00 | 0.02 | 78 | 1012.9 |
| 20260504004550 | 50 | 127 | 6.0 | 8.0 | 0.00 | 0.00 | 0.02 | 77 | 1012.9 |
| 20260504004450 | 50 | 148 | 4.0 | 8.0 | 0.00 | 0.00 | 0.02 | 78 | 1012.9 |
| 20260504004350 | 50 | 177 | 5.0 | 8.0 | 0.00 | 0.00 | 0.02 | 77 | 1012.9 |
| 20260504004250 | 50 | 173 | 4.0 | 8.0 | 0.00 | 0.00 | 0.02 | 78 | 1012.9 |
| 20260504004150 | 50 | 159 | 5.0 | 8.0 | 0.00 | 0.00 | 0.02 | 78 | 1012.9 |
| 20260504004050 | 50 | 150 | 5.0 | 8.0 | 0.00 | 0.00 | 0.02 | 78 | 1012.9 |
| 20260504003950 | 50 | 142 | 5.0 | 8.0 | 0.00 | 0.00 | 0.02 | 78 | 1012.9 |
| 20260504003850 | 50 | 117 | 4.0 | 8.0 | 0.00 | 0.00 | 0.02 | 79 | 1012.9 |
| 20260504003750 | 50 | 134 | 4.0 | 9.0 | 0.00 | 0.00 | 0.02 | 78 | 1012.9 |
| 20260504003650 | 50 | 142 | 5.0 | 9.0 | 0.00 | 0.00 | 0.02 | 78 | 1012.9 |
| 20260504003550 | 50 | 204 | 4.0 | 9.0 | 0.00 | 0.00 | 0.02 | 79 | 1012.6 |
| 20260504003450 | 50 | 158 | 5.0 | 11.0 | 0.00 | 0.00 | 0.02 | 79 | 1012.6 |
| 20260504003350 | 50 | 174 | 6.0 | 11.0 | 0.00 | 0.00 | 0.02 | 79 | 1012.6 |
| 20260504003250 | 50 | 118 | 5.0 | 11.0 | 0.00 | 0.00 | 0.02 | 79 | 1012.6 |
| 20260504003150 | 50 | 169 | 5.0 | 11.0 | 0.00 | 0.00 | 0.02 | 79 | 1012.6 |
| 20260504003050 | 50 | 155 | 6.0 | 11.0 | 0.00 | 0.00 | 0.02 | 79 | 1012.6 |
| 20260504002950 | 50 | 173 | 4.0 | 11.0 | 0.00 | 0.00 | 0.02 | 79 | 1012.6 |
| 20260504002850 | 50 | 114 | 6.0 | 11.0 | 0.00 | 0.00 | 0.02 | 79 | 1012.6 |
| 20260504002750 | 50 | 143 | 6.0 | 11.0 | 0.00 | 0.00 | 0.02 | 79 | 1012.6 |
| 20260504002651 | 50 | 148 | 7.0 | 11.0 | 0.00 | 0.00 | 0.02 | 79 | 1012.6 |
| 20260504002550 | 50 | 141 | 6.0 | 11.0 | 0.00 | 0.00 | 0.02 | 79 | 1012.6 |
| 20260504002450 | 50 | 152 | 2.0 | 9.0 | 0.00 | 0.00 | 0.02 | 80 | 1012.6 |
| 20260504002350 | 50 | 122 | 5.0 | 9.0 | 0.00 | 0.00 | 0.02 | 79 | 1012.6 |
| 20260504002250 | 50 | 149 | 4.0 | 9.0 | 0.00 | 0.00 | 0.02 | 79 | 1012.6 |
| 20260504002150 | 50 | 101 | 0.0 | 9.0 | 0.00 | 0.00 | 0.02 | 79 | 1012.6 |
| 20260504002050 | 50 | 70 | 0.0 | 9.0 | 0.00 | 0.00 | 0.02 | 79 | 1012.6 |
| 20260504001950 | 50 | 69 | 4.0 | 9.0 | 0.00 | 0.00 | 0.02 | 79 | 1012.6 |
| 20260504001850 | 50 | 156 | 4.0 | 9.0 | 0.00 | 0.00 | 0.02 | 79 | 1012.6 |
| 20260504001750 | 50 | 138 | 5.0 | 9.0 | 0.00 | 0.00 | 0.02 | 79 | 1012.6 |
| 20260504001650 | 50 | 149 | 5.0 | 9.0 | 0.00 | 0.00 | 0.02 | 79 | 1012.6 |
| 20260504001550 | 50 | 125 | 5.0 | 8.0 | 0.00 | 0.00 | 0.02 | 79 | 1012.6 |
| 20260504001450 | 50 | 128 | 4.0 | 8.0 | 0.00 | 0.00 | 0.02 | 80 | 1012.6 |
| 20260504001350 | 50 | 145 | 4.0 | 8.0 | 0.00 | 0.00 | 0.02 | 80 | 1012.6 |
| 20260504001250 | 50 | 141 | 3.0 | 8.0 | 0.00 | 0.00 | 0.02 | 80 | 1012.6 |
| 20260504001150 | 50 | 125 | 3.0 | 8.0 | 0.00 | 0.00 | 0.02 | 80 | 1012.6 |
| 20260504001050 | 49 | 145 | 5.0 | 8.0 | 0.00 | 0.00 | 0.02 | 81 | 1012.6 |
| 20260504000950 | 50 | 145 | 3.0 | 7.0 | 0.00 | 0.00 | 0.02 | 81 | 1012.6 |
| 20260504000850 | 49 | 127 | 6.0 | 7.0 | 0.00 | 0.00 | 0.02 | 81 | 1012.6 |
| 20260504000750 | 49 | 141 | 5.0 | 7.0 | 0.00 | 0.00 | 0.02 | 82 | 1012.6 |
| 20260504000650 | 50 | 201 | 2.0 | 4.0 | 0.00 | 0.00 | 0.02 | 83 | 1012.6 |
| 20260504000550 | 50 | 131 | 3.0 | 6.0 | 0.00 | 0.00 | 0.02 | 83 | 1012.6 |
| 20260504000450 | 50 | 153 | 0.0 | 6.0 | 0.00 | 0.00 | 0.02 | 83 | 1012.6 |
| 20260504000350 | 50 | 59 | 0.0 | 7.0 | 0.00 | 0.00 | 0.02 | 82 | 1012.6 |
| 20260504000250 | 50 | 59 | 0.0 | 7.0 | 0.00 | 0.00 | 0.02 | 82 | 1012.6 |
| 20260504000150 | 50 | 59 | 0.0 | 8.0 | 0.00 | 0.00 | 0.02 | 82 | 1012.6 |
| 20260504000050 | 50 | 59 | 0.0 | 8.0 | 0.00 | 0.00 | 0.02 | 82 | 1012.6 |
| 20260503235950 | 50 | 113 | 2.0 | 8.0 | 0.00 | 0.00 | 0.02 | 83 | 1012.6 |
| 20260503235850 | 50 | 45 | 0.0 | 8.0 | 0.00 | 0.00 | 0.02 | 83 | 1012.6 |
| 20260503235750 | 49 | 80 | 1.0 | 8.0 | 0.00 | 0.00 | 0.02 | 83 | 1012.6 |
| 20260503235650 | 49 | 56 | 2.0 | 8.0 | 0.00 | 0.00 | 0.02 | 83 | 1012.6 |
| 20260503235550 | 49 | 145 | 3.0 | 8.0 | 0.00 | 0.00 | 0.02 | 83 | 1012.6 |
| 20260503235450 | 49 | 49 | 4.0 | 8.0 | 0.00 | 0.00 | 0.02 | 83 | 1012.6 |
| 20260503235350 | 49 | 135 | 4.0 | 8.0 | 0.00 | 0.00 | 0.02 | 84 | 1012.6 |
| 20260503235250 | 49 | 173 | 4.0 | 8.0 | 0.00 | 0.00 | 0.02 | 83 | 1012.6 |
| 20260503235150 | 49 | 145 | 4.0 | 8.0 | 0.00 | 0.00 | 0.02 | 83 | 1012.6 |
| 20260503235050 | 49 | 124 | 5.0 | 8.0 | 0.00 | 0.00 | 0.02 | 84 | 1012.6 |
| 20260503234950 | 49 | 143 | 3.0 | 7.0 | 0.00 | 0.00 | 0.02 | 84 | 1012.6 |
| 20260503234850 | 49 | 134 | 3.0 | 5.0 | 0.00 | 0.00 | 0.02 | 84 | 1012.6 |
| 20260503234750 | 49 | 84 | 2.0 | 7.0 | 0.00 | 0.00 | 0.02 | 84 | 1012.6 |
| 20260503234650 | 49 | 136 | 2.0 | 7.0 | 0.00 | 0.00 | 0.02 | 84 | 1012.6 |
| 20260503234550 | 50 | 62 | 2.0 | 7.0 | 0.00 | 0.00 | 0.02 | 84 | 1012.6 |
| 20260503234450 | 50 | 89 | 1.0 | 7.0 | 0.00 | 0.00 | 0.02 | 84 | 1012.6 |
| 20260503234350 | 49 | 115 | 1.0 | 7.0 | 0.00 | 0.00 | 0.02 | 84 | 1012.6 |
| 20260503234250 | 49 | 121 | 2.0 | 7.0 | 0.00 | 0.00 | 0.02 | 84 | 1012.6 |
| 20260503234150 | 49 | 152 | 1.0 | 7.0 | 0.00 | 0.00 | 0.02 | 84 | 1012.6 |
| 20260503234050 | 49 | 103 | 0.0 | 7.0 | 0.00 | 0.00 | 0.02 | 84 | 1012.6 |
| 20260503233950 | 49 | 103 | 0.0 | 7.0 | 0.00 | 0.00 | 0.02 | 84 | 1012.6 |
| 20260503233850 | 49 | 103 | 3.0 | 7.0 | 0.00 | 0.00 | 0.02 | 83 | 1012.6 |
| 20260503233750 | 49 | 146 | 2.0 | 7.0 | 0.00 | 0.00 | 0.02 | 83 | 1012.6 |
| 20260503233650 | 49 | 146 | 2.0 | 6.0 | 0.00 | 0.00 | 0.02 | 83 | 1012.6 |
| 20260503233550 | 49 | 117 | 2.0 | 6.0 | 0.00 | 0.00 | 0.02 | 83 | 1012.6 |
| 20260503233450 | 49 | 128 | 4.0 | 6.0 | 0.00 | 0.00 | 0.02 | 83 | 1012.9 |
| 20260503233350 | 49 | 93 | 2.0 | 6.0 | 0.00 | 0.00 | 0.02 | 83 | 1012.9 |
| 20260503233250 | 49 | 110 | 2.0 | 6.0 | 0.00 | 0.00 | 0.02 | 83 | 1012.9 |
| 20260503233150 | 49 | 125 | 1.0 | 6.0 | 0.00 | 0.00 | 0.02 | 83 | 1012.9 |
| 20260503233050 | 49 | 114 | 1.0 | 6.0 | 0.00 | 0.00 | 0.02 | 83 | 1012.9 |
| 20260503232950 | 49 | 128 | 3.0 | 6.0 | 0.00 | 0.00 | 0.02 | 83 | 1012.9 |
| 20260503232850 | 49 | 79 | 1.0 | 6.0 | 0.00 | 0.00 | 0.02 | 84 | 1012.9 |
| 20260503232750 | 49 | 49 | 1.0 | 6.0 | 0.00 | 0.00 | 0.02 | 84 | 1012.9 |
| 20260503232650 | 49 | 150 | 2.0 | 6.0 | 0.00 | 0.00 | 0.02 | 84 | 1012.9 |
| 20260503232550 | 49 | 73 | 0.0 | 6.0 | 0.00 | 0.00 | 0.02 | 84 | 1012.9 |
| 20260503232450 | 49 | 73 | 2.0 | 6.0 | 0.00 | 0.00 | 0.02 | 84 | 1012.9 |
| 20260503232350 | 49 | 155 | 4.0 | 6.0 | 0.00 | 0.00 | 0.02 | 84 | 1012.9 |
| 20260503232250 | 49 | 118 | 3.0 | 6.0 | 0.00 | 0.00 | 0.02 | 85 | 1012.9 |
| 20260503232150 | 49 | 159 | 4.0 | 6.0 | 0.00 | 0.00 | 0.02 | 84 | 1012.9 |
| 20260503232050 | 49 | 152 | 1.0 | 6.0 | 0.00 | 0.00 | 0.02 | 85 | 1012.9 |
| 20260503231950 | 49 | 28 | 0.0 | 6.0 | 0.00 | 0.00 | 0.02 | 85 | 1012.9 |
| 20260503231850 | 49 | 28 | 0.0 | 6.0 | 0.00 | 0.00 | 0.02 | 85 | 1012.9 |
| 20260503231750 | 49 | 28 | 0.0 | 6.0 | 0.00 | 0.00 | 0.02 | 85 | 1012.9 |
| 20260503231650 | 49 | 28 | 0.0 | 6.0 | 0.00 | 0.00 | 0.02 | 85 | 1012.9 |
| 20260503231550 | 49 | 28 | 1.0 | 6.0 | 0.00 | 0.00 | 0.02 | 85 | 1012.9 |
| 20260503231450 | 49 | 93 | 3.0 | 6.0 | 0.00 | 0.00 | 0.02 | 85 | 1012.9 |
| 20260503231350 | 49 | 69 | 1.0 | 3.0 | 0.00 | 0.00 | 0.02 | 85 | 1012.9 |
| 20260503231250 | 49 | 39 | 0.0 | 5.0 | 0.01 | 0.00 | 0.02 | 85 | 1012.9 |
| 20260503231150 | 49 | 39 | 0.0 | 5.0 | 0.01 | 0.00 | 0.02 | 85 | 1012.9 |
| 20260503231050 | 49 | 39 | 0.0 | 5.0 | 0.01 | 0.00 | 0.02 | 85 | 1012.9 |
| 20260503230950 | 49 | 39 | 0.0 | 5.0 | 0.01 | 0.00 | 0.02 | 85 | 1012.9 |
| 20260503230850 | 49 | 39 | 0.0 | 5.0 | 0.01 | 0.00 | 0.02 | 84 | 1012.9 |
| 20260503230750 | 49 | 39 | 0.0 | 5.0 | 0.01 | 0.00 | 0.02 | 30 | 1012.9 |
| 20260503230650 | 49 | 39 | 0.0 | 5.0 | 0.01 | 0.00 | 0.02 | 85 | 1012.9 |
| 20260503230550 | 49 | 39 | 0.0 | 5.0 | 0.01 | 0.00 | 0.02 | 85 | 1012.9 |
| 20260503230450 | 49 | 39 | 0.0 | 5.0 | 0.01 | 0.00 | 0.02 | 85 | 1012.9 |
| 20260503230350 | 49 | 39 | 2.0 | 5.0 | 0.02 | 0.00 | 0.02 | 85 | 1012.9 |
| 20260503230250 | 49 | 41 | 0.0 | 4.0 | 0.02 | 0.00 | 0.02 | 85 | 1012.9 |
| 20260503230150 | 49 | 87 | 1.0 | 4.0 | 0.02 | 0.00 | 0.02 | 31 | 1012.9 |
| 20260503230050 | 49 | 114 | 3.0 | 4.0 | 0.02 | 0.00 | 0.02 | 85 | 1012.9 |
| 20260503225950 | 49 | 114 | 0.0 | 4.0 | 0.02 | 0.00 | 0.02 | 86 | 1012.9 |
| 20260503225850 | 49 | 91 | 0.0 | 6.0 | 0.02 | 0.00 | 0.02 | 85 | 1012.9 |
| 20260503225750 | 49 | 124 | 1.0 | 6.0 | 0.02 | 0.00 | 0.02 | 86 | 1012.9 |
| 20260503225650 | 49 | 93 | 0.0 | 6.0 | 0.02 | 0.00 | 0.02 | 86 | 1013.2 |
| 20260503225550 | 49 | 41 | 0.0 | 6.0 | 0.02 | 0.00 | 0.02 | 86 | 1013.2 |
| 20260503225450 | 49 | 41 | 0.0 | 6.0 | 0.02 | 0.00 | 0.02 | 86 | 1013.2 |
| 20260503225350 | 49 | 41 | 2.0 | 6.0 | 0.02 | 0.00 | 0.02 | 86 | 1013.2 |
| 20260503225250 | 49 | 63 | 1.0 | 6.0 | 0.02 | 0.00 | 0.02 | 86 | 1013.2 |
| 20260503225150 | 49 | 134 | 2.0 | 6.0 | 0.02 | 0.00 | 0.02 | 86 | 1013.2 |
| 20260503225050 | 49 | 89 | 2.0 | 6.0 | 0.02 | 0.00 | 0.02 | 87 | 1013.2 |
| 20260503224950 | 49 | 132 | 4.0 | 6.0 | 0.02 | 0.00 | 0.02 | 87 | 1013.2 |
| 20260503224850 | 49 | 142 | 3.0 | 5.0 | 0.02 | 0.00 | 0.02 | 86 | 1013.2 |
| 20260503224750 | 49 | 156 | 1.0 | 5.0 | 0.02 | 0.00 | 0.02 | 87 | 1013.2 |
| 20260503224650 | 49 | 224 | 0.0 | 0.0 | 0.02 | 0.00 | 0.02 | 87 | 1013.2 |
| 20260503224550 | 49 | 224 | 0.0 | 0.0 | 0.02 | 0.00 | 0.02 | 86 | 1013.2 |
| 20260503224450 | 49 | 224 | 0.0 | 0.0 | 0.02 | 0.00 | 0.02 | 86 | 1013.2 |
| 20260503224350 | 49 | 224 | 0.0 | 0.0 | 0.02 | 0.00 | 0.02 | 86 | 1013.6 |
| 20260503224250 | 49 | 224 | 0.0 | 0.0 | 0.02 | 0.00 | 0.02 | 86 | 1013.6 |
| 20260503224150 | 49 | 224 | 0.0 | 0.0 | 0.02 | 0.00 | 0.02 | 85 | 1013.6 |
| 20260503224050 | 49 | 224 | 0.0 | 0.0 | 0.02 | 0.00 | 0.02 | 85 | 1013.6 |
| 20260503223950 | 49 | 224 | 0.0 | 0.0 | 0.02 | 0.00 | 0.02 | 85 | 1013.6 |
| 20260503223850 | 49 | 224 | 0.0 | 0.0 | 0.02 | 0.00 | 0.02 | 86 | 1013.6 |
| 20260503223750 | 49 | 224 | 0.0 | 0.0 | 0.02 | 0.00 | 0.02 | 86 | 1013.6 |
| 20260503223650 | 49 | 224 | 0.0 | 0.0 | 0.02 | 0.00 | 0.02 | 85 | 1013.6 |
| 20260503223550 | 49 | 224 | 0.0 | 0.0 | 0.02 | 0.00 | 0.02 | 85 | 1013.6 |
| 20260503223450 | 49 | 224 | 0.0 | 0.0 | 0.02 | 0.00 | 0.02 | 85 | 1013.6 |
| 20260503223350 | 49 | 224 | 0.0 | 0.0 | 0.02 | 0.00 | 0.02 | 85 | 1013.6 |
| 20260503223250 | 49 | 224 | 0.0 | 0.0 | 0.02 | 0.00 | 0.02 | 84 | 1013.6 |
| 20260503223150 | 49 | 224 | 0.0 | 0.0 | 0.02 | 0.00 | 0.02 | 85 | 1013.6 |
| 20260503223050 | 49 | 224 | 0.0 | 0.0 | 0.02 | 0.00 | 0.02 | 85 | 1013.6 |
| 20260503222950 | 49 | 224 | 0.0 | 0.0 | 0.02 | 0.00 | 0.02 | 84 | 1013.6 |
| 20260503222850 | 49 | 224 | 0.0 | 0.0 | 0.02 | 0.00 | 0.02 | 85 | 1013.6 |
| 20260503222750 | 49 | 224 | 0.0 | 0.0 | 0.02 | 0.00 | 0.02 | 85 | 1013.6 |
| 20260503222650 | 49 | 224 | 0.0 | 3.0 | 0.02 | 0.00 | 0.02 | 84 | 1013.6 |
| 20260503222550 | 49 | 224 | 0.0 | 3.0 | 0.02 | 0.00 | 0.02 | 84 | 1013.6 |
| 20260503222450 | 49 | 224 | 0.0 | 4.0 | 0.02 | 0.00 | 0.02 | 84 | 1013.6 |
| 20260503222350 | 49 | 224 | 0.0 | 6.0 | 0.02 | 0.00 | 0.02 | 84 | 1013.6 |
| 20260503222250 | 49 | 224 | 0.0 | 6.0 | 0.02 | 0.00 | 0.02 | 84 | 1013.9 |
| 20260503222150 | 49 | 224 | 0.0 | 6.0 | 0.02 | 0.00 | 0.02 | 84 | 1013.9 |
| 20260503222050 | 49 | 224 | 0.0 | 6.0 | 0.02 | 0.00 | 0.02 | 84 | 1013.9 |
| 20260503221950 | 49 | 224 | 0.0 | 7.0 | 0.02 | 0.00 | 0.02 | 84 | 1013.9 |
| 20260503221850 | 49 | 224 | 0.0 | 7.0 | 0.02 | 0.00 | 0.02 | 84 | 1013.9 |
| 20260503221750 | 49 | 224 | 2.0 | 7.0 | 0.02 | 0.00 | 0.02 | 84 | 1014.3 |
| 20260503221650 | 49 | 58 | 2.0 | 7.0 | 0.02 | 0.00 | 0.02 | 84 | 1014.3 |
| 20260503221550 | 49 | 125 | 2.0 | 7.0 | 0.02 | 0.00 | 0.02 | 84 | 1014.3 |
| 20260503221450 | 49 | 142 | 4.0 | 8.0 | 0.02 | 0.00 | 0.02 | 84 | 1014.3 |
| 20260503221350 | 49 | 149 | 4.0 | 8.0 | 0.02 | 0.00 | 0.02 | 84 | 1014.6 |
| 20260503221250 | 49 | 159 | 1.0 | 8.0 | 0.01 | 0.00 | 0.01 | 84 | 1014.6 |
| 20260503221150 | 49 | 167 | 3.0 | 8.0 | 0.01 | 0.00 | 0.01 | 84 | 1014.6 |
| 20260503221050 | 49 | 201 | 6.0 | 8.0 | 0.01 | 0.00 | 0.01 | 83 | 1014.6 |
| 20260503220950 | 49 | 143 | 5.0 | 8.0 | 0.01 | 0.00 | 0.01 | 84 | 1014.6 |
| 20260503220850 | 49 | 184 | 4.0 | 8.0 | 0.01 | 0.00 | 0.01 | 84 | 1014.6 |
| 20260503220750 | 49 | 145 | 3.0 | 8.0 | 0.01 | 0.00 | 0.01 | 83 | 1014.6 |
| 20260503220650 | 49 | 162 | 4.0 | 8.0 | 0.01 | 0.00 | 0.01 | 83 | 1014.9 |
| 20260503220550 | 49 | 197 | 5.0 | 8.0 | 0.01 | 0.00 | 0.01 | 83 | 1014.9 |
| 20260503220450 | 49 | 186 | 6.0 | 9.0 | 0.01 | 0.00 | 0.01 | 82 | 1014.9 |
| 20260503220350 | 50 | 212 | 3.0 | 9.0 | 0.00 | 0.00 | 0.00 | 82 | 1014.9 |
| 20260503220250 | 50 | 183 | 3.0 | 9.0 | 0.00 | 0.00 | 0.00 | 82 | 1014.9 |
| 20260503220150 | 50 | 167 | 4.0 | 10.0 | 0.00 | 0.00 | 0.00 | 82 | 1014.9 |
| 20260503220050 | 50 | 198 | 5.0 | 10.0 | 0.00 | 0.00 | 0.00 | 81 | 1014.9 |
| 20260503215950 | 50 | 188 | 4.0 | 12.0 | 0.00 | 0.00 | 0.00 | 81 | 1014.9 |
| 20260503215850 | 50 | 203 | 3.0 | 12.0 | 0.00 | 0.00 | 0.00 | 81 | 1014.9 |
| 20260503215750 | 50 | 219 | 4.0 | 15.0 | 0.00 | 0.00 | 0.00 | 81 | 1014.9 |
| 20260503215650 | 50 | 197 | 5.0 | 15.0 | 0.00 | 0.00 | 0.00 | 80 | 1014.9 |
| 20260503215550 | 50 | 217 | 5.0 | 15.0 | 0.00 | 0.00 | 0.00 | 80 | 1014.9 |
| 20260503215450 | 50 | 135 | 6.0 | 15.0 | 0.00 | 0.00 | 0.00 | 79 | 1015.3 |
| 20260503215350 | 50 | 231 | 4.0 | 15.0 | 0.00 | 0.00 | 0.00 | 78 | 1015.3 |
| 20260503215250 | 50 | 238 | 7.0 | 15.0 | 0.00 | 0.00 | 0.00 | 77 | 1015.3 |
| 20260503215150 | 50 | 191 | 7.0 | 15.0 | 0.00 | 0.00 | 0.00 | 76 | 1015.3 |
| 20260503215050 | 50 | 197 | 7.0 | 15.0 | 0.00 | 0.00 | 0.00 | 74 | 1015.3 |
| 20260503214950 | 51 | 219 | 6.0 | 15.0 | 0.00 | 0.00 | 0.00 | 74 | 1015.3 |
| 20260503214850 | 51 | 188 | 7.0 | 15.0 | 0.00 | 0.00 | 0.00 | 73 | 1015.3 |
| 20260503214750 | 51 | 214 | 6.0 | 14.0 | 0.00 | 0.00 | 0.00 | 71 | 1015.3 |
| 20260503214650 | 51 | 198 | 7.0 | 14.0 | 0.00 | 0.00 | 0.00 | 71 | 1015.3 |
| 20260503214550 | 52 | 214 | 5.0 | 14.0 | 0.00 | 0.00 | 0.00 | 70 | 1015.3 |
| 20260503214450 | 52 | 219 | 5.0 | 14.0 | 0.00 | 0.00 | 0.00 | 67 | 1015.3 |
| 20260503214350 | 52 | 250 | 5.0 | 14.0 | 0.00 | 0.00 | 0.00 | 67 | 1015.3 |
| 20260503214250 | 52 | 231 | 3.0 | 21.0 | 0.00 | 0.00 | 0.00 | 65 | 1014.9 |
| 20260503214150 | 52 | 274 | 6.0 | 21.0 | 0.00 | 0.00 | 0.00 | 65 | 1014.9 |
| 20260503214050 | 52 | 235 | 7.0 | 21.0 | 0.00 | 0.00 | 0.00 | 64 | 1014.9 |
| 20260503213950 | 52 | 190 | 7.0 | 21.0 | 0.00 | 0.00 | 0.00 | 64 | 1014.9 |
| 20260503213850 | 52 | 221 | 5.0 | 21.0 | 0.00 | 0.00 | 0.00 | 63 | 1014.9 |
| 20260503213750 | 53 | 253 | 5.0 | 21.0 | 0.00 | 0.00 | 0.00 | 62 | 1014.9 |
| 20260503213650 | 53 | 124 | 5.0 | 21.0 | 0.00 | 0.00 | 0.00 | 62 | 1014.9 |
| 20260503213550 | 53 | 311 | 6.0 | 21.0 | 0.00 | 0.00 | 0.00 | 62 | 1014.9 |
| 20260503213450 | 53 | 255 | 7.0 | 21.0 | 0.00 | 0.00 | 0.00 | 61 | 1014.9 |
| 20260503213350 | 52 | 187 | 9.0 | 21.0 | 0.00 | 0.00 | 0.00 | 60 | 1014.9 |
| 20260503213250 | 52 | 201 | 10.0 | 20.0 | 0.00 | 0.00 | 0.00 | 60 | 1014.9 |
| 20260503213150 | 53 | 191 | 6.0 | 18.0 | 0.00 | 0.00 | 0.00 | 59 | 1014.9 |
| 20260503213050 | 53 | 134 | 7.0 | 18.0 | 0.00 | 0.00 | 0.00 | 59 | 1014.9 |
| 20260503212950 | 53 | 221 | 6.0 | 18.0 | 0.00 | 0.00 | 0.00 | 59 | 1014.9 |
| 20260503212850 | 53 | 257 | 6.0 | 23.0 | 0.00 | 0.00 | 0.00 | 58 | 1014.9 |
| 20260503212750 | 53 | 233 | 7.0 | 23.0 | 0.00 | 0.00 | 0.00 | 58 | 1014.9 |
| 20260503212650 | 54 | 93 | 7.0 | 23.0 | 0.00 | 0.00 | 0.00 | 59 | 1014.6 |
| 20260503212550 | 54 | 195 | 9.0 | 23.0 | 0.00 | 0.00 | 0.00 | 58 | 1014.6 |
| 20260503212450 | 54 | 205 | 4.0 | 23.0 | 0.00 | 0.00 | 0.00 | 57 | 1014.6 |
| 20260503212350 | 54 | 338 | 8.0 | 23.0 | 0.00 | 0.00 | 0.00 | 57 | 1014.6 |
| 20260503212250 | 55 | 326 | 3.0 | 23.0 | 0.00 | 0.00 | 0.00 | 56 | 1014.6 |
| 20260503212150 | 55 | 20 | 4.0 | 23.0 | 0.00 | 0.00 | 0.00 | 56 | 1014.6 |
| 20260503212050 | 55 | 214 | 5.0 | 23.0 | 0.00 | 0.00 | 0.00 | 55 | 1014.6 |
| 20260503211950 | 55 | 190 | 10.0 | 23.0 | 0.00 | 0.00 | 0.00 | 55 | 1014.6 |
| 20260503211850 | 55 | 290 | 7.0 | 21.0 | 0.00 | 0.00 | 0.00 | 53 | 1014.6 |
| 20260503211750 | 55 | 193 | 9.0 | 21.0 | 0.00 | 0.00 | 0.00 | 53 | 1014.6 |
| 20260503211650 | 55 | 235 | 6.0 | 21.0 | 0.00 | 0.00 | 0.00 | 53 | 1014.6 |
| 20260503211550 | 55 | 212 | 8.0 | 21.0 | 0.00 | 0.00 | 0.00 | 52 | 1014.6 |
| 20260503211450 | 56 | 273 | 6.0 | 21.0 | 0.00 | 0.00 | 0.00 | 53 | 1014.6 |
| 20260503211350 | 56 | 187 | 8.0 | 21.0 | 0.00 | 0.00 | 0.00 | 52 | 1014.6 |
| 20260503211250 | 57 | 255 | 4.0 | 21.0 | 0.00 | 0.00 | 0.00 | 52 | 1014.6 |
| 20260503211150 | 56 | 267 | 8.0 | 21.0 | 0.00 | 0.00 | 0.00 | 50 | 1014.6 |
| 20260503211050 | 57 | 173 | 5.0 | 21.0 | 0.00 | 0.00 | 0.00 | 48 | 1014.3 |
| 20260503210950 | 57 | 150 | 4.0 | 21.0 | 0.00 | 0.00 | 0.00 | 47 | 1014.3 |
| 20260503210850 | 57 | 242 | 9.0 | 21.0 | 0.00 | 0.00 | 0.00 | 48 | 1014.3 |
| 20260503210750 | 58 | 297 | 9.0 | 21.0 | 0.00 | 0.00 | 0.00 | 45 | 1014.3 |
| 20260503210650 | 58 | 239 | 9.0 | 21.0 | 0.00 | 0.00 | 0.00 | 43 | 1014.3 |
| 20260503210550 | 59 | 1 | 5.0 | 18.0 | 0.00 | 0.00 | 0.00 | 42 | 1014.3 |
| 20260503210450 | 59 | 142 | 5.0 | 18.0 | 0.00 | 0.00 | 0.00 | 41 | 1014.3 |
| 20260503210350 | 59 | 236 | 8.0 | 18.0 | 0.00 | 0.00 | 0.00 | 39 | 1014.3 |
| 20260503210250 | 59 | 198 | 8.0 | 18.0 | 0.00 | 0.00 | 0.00 | 38 | 1014.3 |
| 20260503210150 | 59 | 228 | 6.0 | 14.0 | 0.00 | 0.00 | 0.00 | 36 | 1013.9 |
| 20260503210050 | 59 | 293 | 8.0 | 14.0 | 0.00 | 0.00 | 0.00 | 35 | 1013.9 |
| 20260503205950 | 59 | 307 | 6.0 | 14.0 | 0.00 | 0.00 | 0.00 | 34 | 1013.9 |
| 20260503205850 | 59 | 204 | 6.0 | 14.0 | 0.00 | 0.00 | 0.00 | 34 | 1013.9 |
| 20260503205750 | 60 | 176 | 7.0 | 14.0 | 0.00 | 0.00 | 0.00 | 34 | 1013.9 |
| 20260503205650 | 59 | 176 | 7.0 | 15.0 | 0.00 | 0.00 | 0.00 | 34 | 1013.9 |
| 20260503205550 | 59 | 200 | 6.0 | 17.0 | 0.00 | 0.00 | 0.00 | 34 | 1013.9 |
| 20260503205450 | 60 | 211 | 6.0 | 17.0 | 0.00 | 0.00 | 0.00 | 35 | 1013.9 |
| 20260503205350 | 60 | 170 | 4.0 | 17.0 | 0.00 | 0.00 | 0.00 | 35 | 1013.9 |
| 20260503205250 | 60 | 245 | 5.0 | 18.0 | 0.00 | 0.00 | 0.00 | 35 | 1013.9 |
| 20260503205150 | 60 | 180 | 4.0 | 18.0 | 0.00 | 0.00 | 0.00 | 36 | 1013.9 |
| 20260503205050 | 59 | 235 | 6.0 | 18.0 | 0.00 | 0.00 | 0.00 | 35 | 1013.9 |
| 20260503204950 | 59 | 188 | 7.0 | 18.0 | 0.00 | 0.00 | 0.00 | 35 | 1013.9 |
| 20260503204850 | 59 | 201 | 8.0 | 18.0 | 0.00 | 0.00 | 0.00 | 34 | 1014.3 |
| 20260503204750 | 59 | 165 | 8.0 | 18.0 | 0.00 | 0.00 | 0.00 | 34 | 1014.3 |
| 20260503204650 | 60 | 158 | 5.0 | 18.0 | 0.00 | 0.00 | 0.00 | 34 | 1014.3 |
| 20260503204550 | 59 | 321 | 7.0 | 18.0 | 0.00 | 0.00 | 0.00 | 33 | 1014.3 |
| 20260503204450 | 60 | 193 | 5.0 | 18.0 | 0.00 | 0.00 | 0.00 | 34 | 1014.3 |
| 20260503204350 | 60 | 165 | 6.0 | 18.0 | 0.00 | 0.00 | 0.00 | 33 | 1014.3 |
| 20260503204250 | 60 | 232 | 8.0 | 18.0 | 0.00 | 0.00 | 0.00 | 34 | 1014.3 |
| 20260503204150 | 60 | 290 | 5.0 | 18.0 | 0.00 | 0.00 | 0.00 | 34 | 1014.3 |
| 20260503204050 | 60 | 262 | 4.0 | 18.0 | 0.00 | 0.00 | 0.00 | 34 | 1014.3 |
| 20260503203950 | 60 | 260 | 7.0 | 18.0 | 0.00 | 0.00 | 0.00 | 35 | 1014.3 |
| 20260503203850 | 60 | 132 | 5.0 | 20.0 | 0.00 | 0.00 | 0.00 | 35 | 1014.3 |
| 20260503203750 | 60 | 240 | 5.0 | 20.0 | 0.00 | 0.00 | 0.00 | 35 | 1014.3 |
| 20260503203650 | 60 | 312 | 2.0 | 20.0 | 0.00 | 0.00 | 0.00 | 35 | 1014.3 |
| 20260503203550 | 59 | 262 | 9.0 | 20.0 | 0.00 | 0.00 | 0.00 | 34 | 1014.3 |
| 20260503203450 | 60 | 187 | 10.0 | 20.0 | 0.00 | 0.00 | 0.00 | 35 | 1014.3 |
| 20260503203350 | 60 | 201 | 9.0 | 20.0 | 0.00 | 0.00 | 0.00 | 33 | 1014.3 |
| 20260503203250 | 60 | 231 | 7.0 | 20.0 | 0.00 | 0.00 | 0.00 | 33 | 1014.3 |
| 20260503203150 | 60 | 4 | 3.0 | 20.0 | 0.00 | 0.00 | 0.00 | 34 | 1014.3 |
| 20260503203050 | 60 | 166 | 5.0 | 20.0 | 0.00 | 0.00 | 0.00 | 33 | 1014.3 |
| 20260503202950 | 60 | 186 | 9.0 | 20.0 | 0.00 | 0.00 | 0.00 | 32 | 1014.3 |
| 20260503202850 | 60 | 204 | 6.0 | 17.0 | 0.00 | 0.00 | 0.00 | 33 | 1014.3 |
| 20260503202750 | 60 | 167 | 8.0 | 18.0 | 0.00 | 0.00 | 0.00 | 33 | 1014.3 |
| 20260503202650 | 60 | 201 | 8.0 | 18.0 | 0.00 | 0.00 | 0.00 | 32 | 1014.3 |
| 20260503202550 | 61 | 277 | 4.0 | 18.0 | 0.00 | 0.00 | 0.00 | 34 | 1014.3 |
| 20260503202450 | 61 | 240 | 6.0 | 18.0 | 0.00 | 0.00 | 0.00 | 33 | 1014.3 |
| 20260503202350 | 61 | 235 | 5.0 | 18.0 | 0.00 | 0.00 | 0.00 | 33 | 1014.3 |
| 20260503202250 | 61 | 350 | 4.0 | 18.0 | 0.00 | 0.00 | 0.00 | 34 | 1014.3 |
| 20260503202150 | 61 | 285 | 4.0 | 18.0 | 0.00 | 0.00 | 0.00 | 34 | 1014.3 |
| 20260503202050 | 61 | 285 | 5.0 | 18.0 | 0.00 | 0.00 | 0.00 | 34 | 1014.6 |
| 20260503201950 | 61 | 225 | 7.0 | 18.0 | 0.00 | 0.00 | 0.00 | 32 | 1014.3 |
| 20260503201850 | 61 | 293 | 8.0 | 18.0 | 0.00 | 0.00 | 0.00 | 32 | 1014.3 |
| 20260503201750 | 61 | 208 | 3.0 | 13.0 | 0.00 | 0.00 | 0.00 | 34 | 1014.3 |
| 20260503201650 | 61 | 87 | 1.0 | 13.0 | 0.00 | 0.00 | 0.00 | 34 | 1014.3 |
| 20260503201550 | 61 | 141 | 4.0 | 13.0 | 0.00 | 0.00 | 0.00 | 33 | 1014.3 |
| 20260503201450 | 61 | 295 | 3.0 | 13.0 | 0.00 | 0.00 | 0.00 | 33 | 1014.3 |
| 20260503201350 | 61 | 149 | 2.0 | 13.0 | 0.00 | 0.00 | 0.00 | 33 | 1014.6 |
| 20260503201250 | 61 | 281 | 4.0 | 13.0 | 0.00 | 0.00 | 0.00 | 32 | 1014.3 |
| 20260503201150 | 61 | 215 | 7.0 | 13.0 | 0.00 | 0.00 | 0.00 | 31 | 1014.6 |
| 20260503201050 | 62 | 205 | 5.0 | 12.0 | 0.00 | 0.00 | 0.00 | 30 | 1014.6 |
| 20260503200950 | 62 | 263 | 4.0 | 12.0 | 0.00 | 0.00 | 0.00 | 32 | 1014.6 |
| 20260503200850 | 62 | 198 | 3.0 | 12.0 | 0.00 | 0.00 | 0.00 | 32 | 1014.6 |
| 20260503200750 | 62 | 201 | 5.0 | 14.0 | 0.00 | 0.00 | 0.00 | 32 | 1014.6 |
| 20260503200650 | 62 | 233 | 4.0 | 14.0 | 0.00 | 0.00 | 0.00 | 30 | 1014.6 |
| 20260503200550 | 62 | 153 | 5.0 | 14.0 | 0.00 | 0.00 | 0.00 | 32 | 1014.6 |
| 20260503200450 | 62 | 262 | 4.0 | 14.0 | 0.00 | 0.00 | 0.00 | 31 | 1014.6 |
| 20260503200350 | 62 | 257 | 3.0 | 14.0 | 0.00 | 0.00 | 0.00 | 31 | 1014.6 |
| 20260503200250 | 62 | 271 | 4.0 | 14.0 | 0.00 | 0.00 | 0.00 | 32 | 1014.6 |
| 20260503200150 | 62 | 186 | 3.0 | 14.0 | 0.00 | 0.00 | 0.00 | 33 | 1014.6 |
| 20260503200050 | 62 | 295 | 3.0 | 14.0 | 0.00 | 0.00 | 0.00 | 33 | 1014.6 |
| 20260503195950 | 62 | 184 | 5.0 | 14.0 | 0.00 | 0.00 | 0.00 | 32 | 1014.6 |
| 20260503195850 | 62 | 221 | 6.0 | 14.0 | 0.00 | 0.00 | 0.00 | 31 | 1014.6 |
| 20260503195750 | 62 | 162 | 4.0 | 14.0 | 0.00 | 0.00 | 0.00 | 31 | 1014.6 |
| 20260503195650 | 62 | 284 | 5.0 | 16.0 | 0.00 | 0.00 | 0.00 | 31 | 1014.6 |
| 20260503195550 | 62 | 165 | 2.0 | 16.0 | 0.00 | 0.00 | 0.00 | 33 | 1014.6 |
| 20260503195450 | 62 | 212 | 4.0 | 16.0 | 0.00 | 0.00 | 0.00 | 31 | 1014.6 |
| 20260503195350 | 62 | 307 | 4.0 | 18.0 | 0.00 | 0.00 | 0.00 | 32 | 1014.6 |
| 20260503195250 | 62 | 271 | 4.0 | 18.0 | 0.00 | 0.00 | 0.00 | 32 | 1014.6 |
| 20260503195150 | 61 | 177 | 6.0 | 18.0 | 0.00 | 0.00 | 0.00 | 32 | 1014.6 |
| 20260503195050 | 61 | 274 | 7.0 | 18.0 | 0.00 | 0.00 | 0.00 | 32 | 1014.6 |
| 20260503194950 | 61 | 243 | 7.0 | 18.0 | 0.00 | 0.00 | 0.00 | 33 | 1014.6 |
| 20260503194850 | 61 | 243 | 6.0 | 20.0 | 0.00 | 0.00 | 0.00 | 31 | 1014.6 |
| 20260503194750 | 61 | 242 | 7.0 | 20.0 | 0.00 | 0.00 | 0.00 | 31 | 1014.9 |
| 20260503194650 | 61 | 226 | 8.0 | 20.0 | 0.00 | 0.00 | 0.00 | 32 | 1014.6 |
| 20260503194550 | 61 | 132 | 9.0 | 20.0 | 0.00 | 0.00 | 0.00 | 33 | 1014.6 |
| 20260503194450 | 61 | 193 | 8.0 | 20.0 | 0.00 | 0.00 | 0.00 | 32 | 1014.6 |
| 20260503194350 | 61 | 233 | 8.0 | 22.0 | 0.00 | 0.00 | 0.00 | 31 | 1014.6 |
| 20260503194250 | 61 | 198 | 10.0 | 22.0 | 0.00 | 0.00 | 0.00 | 32 | 1014.6 |
| 20260503194150 | 61 | 146 | 9.0 | 22.0 | 0.00 | 0.00 | 0.00 | 32 | 1014.6 |
| 20260503194050 | 60 | 228 | 10.0 | 22.0 | 0.00 | 0.00 | 0.00 | 32 | 1014.9 |
| 20260503193950 | 61 | 208 | 13.0 | 22.0 | 0.00 | 0.00 | 0.00 | 31 | 1014.9 |
| 20260503193850 | 61 | 203 | 9.0 | 22.0 | 0.00 | 0.00 | 0.00 | 32 | 1014.6 |
| 20260503193750 | 61 | 191 | 11.0 | 22.0 | 0.00 | 0.00 | 0.00 | 31 | 1014.6 |
| 20260503193650 | 61 | 204 | 11.0 | 22.0 | 0.00 | 0.00 | 0.00 | 32 | 1014.9 |
| 20260503193550 | 61 | 236 | 11.0 | 22.0 | 0.00 | 0.00 | 0.00 | 31 | 1014.9 |
| 20260503193450 | 61 | 186 | 12.0 | 22.0 | 0.00 | 0.00 | 0.00 | 31 | 1014.9 |
| 20260503193350 | 61 | 165 | 10.0 | 16.0 | 0.00 | 0.00 | 0.00 | 32 | 1014.9 |
| 20260503193250 | 61 | 252 | 8.0 | 16.0 | 0.00 | 0.00 | 0.00 | 32 | 1014.9 |
| 20260503193150 | 61 | 193 | 8.0 | 16.0 | 0.00 | 0.00 | 0.00 | 30 | 1014.9 |
| 20260503193050 | 61 | 183 | 10.0 | 16.0 | 0.00 | 0.00 | 0.00 | 33 | 1014.9 |
| 20260503192950 | 62 | 170 | 9.0 | 16.0 | 0.00 | 0.00 | 0.00 | 33 | 1014.9 |
| 20260503192850 | 62 | 198 | 5.0 | 16.0 | 0.00 | 0.00 | 0.00 | 32 | 1014.9 |
| 20260503192750 | 62 | 328 | 7.0 | 15.0 | 0.00 | 0.00 | 0.00 | 30 | 1014.9 |
| 20260503192650 | 62 | 236 | 8.0 | 17.0 | 0.00 | 0.00 | 0.00 | 31 | 1014.9 |
| 20260503192550 | 62 | 271 | 6.0 | 17.0 | 0.00 | 0.00 | 0.00 | 31 | 1014.9 |
| 20260503192450 | 62 | 212 | 8.0 | 17.0 | 0.00 | 0.00 | 0.00 | 31 | 1014.9 |
| 20260503192350 | 62 | 174 | 7.0 | 17.0 | 0.00 | 0.00 | 0.00 | 29 | 1014.9 |
| 20260503192250 | 62 | 218 | 8.0 | 18.0 | 0.00 | 0.00 | 0.00 | 29 | 1014.9 |
| 20260503192150 | 62 | 181 | 6.0 | 18.0 | 0.00 | 0.00 | 0.00 | 32 | 1014.9 |
| 20260503192050 | 62 | 207 | 6.0 | 19.0 | 0.00 | 0.00 | 0.00 | 31 | 1014.9 |
| 20260503191950 | 62 | 193 | 6.0 | 20.0 | 0.00 | 0.00 | 0.00 | 31 | 1014.9 |
| 20260503191850 | 62 | 236 | 7.0 | 20.0 | 0.00 | 0.00 | 0.00 | 32 | 1014.9 |
| 20260503191750 | 62 | 222 | 9.0 | 20.0 | 0.00 | 0.00 | 0.00 | 32 | 1014.9 |
| 20260503191650 | 62 | 193 | 10.0 | 20.0 | 0.00 | 0.00 | 0.00 | 32 | 1014.9 |
| 20260503191550 | 62 | 186 | 8.0 | 20.0 | 0.00 | 0.00 | 0.00 | 31 | 1014.9 |
| 20260503191450 | 62 | 180 | 7.0 | 20.0 | 0.00 | 0.00 | 0.00 | 32 | 1014.9 |
| 20260503191350 | 61 | 201 | 10.0 | 20.0 | 0.00 | 0.00 | 0.00 | 31 | 1014.9 |
| 20260503191250 | 61 | 210 | 9.0 | 20.0 | 0.00 | 0.00 | 0.00 | 32 | 1014.9 |
| 20260503191150 | 61 | 204 | 12.0 | 20.0 | 0.00 | 0.00 | 0.00 | 31 | 1014.9 |
| 20260503191050 | 62 | 210 | 13.0 | 20.0 | 0.00 | 0.00 | 0.00 | 31 | 1014.9 |
| 20260503190950 | 62 | 172 | 10.0 | 20.0 | 0.00 | 0.00 | 0.00 | 31 | 1014.9 |
| 20260503190850 | 62 | 235 | 7.0 | 19.0 | 0.00 | 0.00 | 0.00 | 32 | 1014.9 |
| 20260503190750 | 62 | 146 | 9.0 | 19.0 | 0.00 | 0.00 | 0.00 | 30 | 1015.3 |
| 20260503190650 | 62 | 186 | 8.0 | 19.0 | 0.00 | 0.00 | 0.00 | 31 | 1015.3 |
| 20260503190550 | 62 | 169 | 8.0 | 19.0 | 0.00 | 0.00 | 0.00 | 31 | 1015.3 |
| 20260503190450 | 62 | 193 | 8.0 | 19.0 | 0.00 | 0.00 | 0.00 | 32 | 1015.3 |
| 20260503190350 | 62 | 210 | 9.0 | 19.0 | 0.00 | 0.00 | 0.00 | 32 | 1015.3 |
| 20260503190250 | 62 | 195 | 9.0 | 19.0 | 0.00 | 0.00 | 0.00 | 32 | 1015.3 |
| 20260503190150 | 61 | 138 | 14.0 | 19.0 | 0.00 | 0.00 | 0.00 | 30 | 1015.3 |
| 20260503190050 | 62 | 177 | 12.0 | 17.0 | 0.00 | 0.00 | 0.00 | 31 | 1015.3 |
| 20260503185950 | 62 | 181 | 9.0 | 15.0 | 0.00 | 0.00 | 0.00 | 31 | 1015.3 |
| 20260503185850 | 63 | 174 | 4.0 | 16.0 | 0.00 | 0.00 | 0.00 | 31 | 1015.3 |
| 20260503185750 | 63 | 162 | 3.0 | 16.0 | 0.00 | 0.00 | 0.00 | 31 | 1015.3 |
| 20260503185650 | 62 | 288 | 5.0 | 16.0 | 0.00 | 0.00 | 0.00 | 32 | 1015.3 |
| 20260503185550 | 62 | 283 | 5.0 | 16.0 | 0.00 | 0.00 | 0.00 | 32 | 1015.3 |
| 20260503185450 | 62 | 328 | 7.0 | 16.0 | 0.00 | 0.00 | 0.00 | 30 | 1015.3 |
| 20260503185350 | 62 | 260 | 6.0 | 16.0 | 0.00 | 0.00 | 0.00 | 33 | 1015.3 |
| 20260503185250 | 62 | 210 | 9.0 | 16.0 | 0.00 | 0.00 | 0.00 | 32 | 1015.3 |
| 20260503185150 | 62 | 183 | 8.0 | 16.0 | 0.00 | 0.00 | 0.00 | 31 | 1015.3 |
| 20260503185050 | 62 | 219 | 8.0 | 16.0 | 0.00 | 0.00 | 0.00 | 29 | 1015.3 |
| 20260503184950 | 62 | 212 | 8.0 | 16.0 | 0.00 | 0.00 | 0.00 | 32 | 1015.3 |
| 20260503184850 | 62 | 226 | 8.0 | 18.0 | 0.00 | 0.00 | 0.00 | 32 | 1015.3 |
| 20260503184750 | 63 | 245 | 3.0 | 18.0 | 0.00 | 0.00 | 0.00 | 31 | 1015.3 |
| 20260503184650 | 62 | 242 | 4.0 | 18.0 | 0.00 | 0.00 | 0.00 | 32 | 1015.6 |
| 20260503184550 | 62 | 253 | 8.0 | 18.0 | 0.00 | 0.00 | 0.00 | 32 | 1015.6 |
| 20260503184450 | 62 | 221 | 6.0 | 18.0 | 0.00 | 0.00 | 0.00 | 32 | 1015.6 |
| 20260503184350 | 62 | 169 | 3.0 | 18.0 | 0.00 | 0.00 | 0.00 | 32 | 1015.6 |
| 20260503184251 | 62 | 232 | 4.0 | 18.0 | 0.00 | 0.00 | 0.00 | 33 | 1015.6 |
| 20260503184150 | 62 | 165 | 5.0 | 18.0 | 0.00 | 0.00 | 0.00 | 31 | 1015.6 |
| 20260503184050 | 61 | 179 | 10.0 | 18.0 | 0.00 | 0.00 | 0.00 | 33 | 1015.6 |
| 20260503183950 | 62 | 186 | 8.0 | 18.0 | 0.00 | 0.00 | 0.00 | 33 | 1015.6 |
| 20260503183850 | 61 | 214 | 9.0 | 17.0 | 0.00 | 0.00 | 0.00 | 32 | 1015.6 |
| 20260503183750 | 62 | 226 | 5.0 | 17.0 | 0.00 | 0.00 | 0.00 | 32 | 1015.6 |
| 20260503183650 | 61 | 214 | 9.0 | 23.0 | 0.00 | 0.00 | 0.00 | 31 | 1015.6 |
| 20260503183550 | 61 | 208 | 9.0 | 23.0 | 0.00 | 0.00 | 0.00 | 29 | 1015.6 |
| 20260503183450 | 61 | 204 | 11.0 | 23.0 | 0.00 | 0.00 | 0.00 | 30 | 1015.6 |
| 20260503183350 | 61 | 219 | 9.0 | 23.0 | 0.00 | 0.00 | 0.00 | 30 | 1015.6 |
| 20260503183250 | 61 | 193 | 6.0 | 23.0 | 0.00 | 0.00 | 0.00 | 30 | 1015.6 |
| 20260503183150 | 61 | 276 | 6.0 | 23.0 | 0.00 | 0.00 | 0.00 | 31 | 1015.6 |
| 20260503183050 | 61 | 283 | 6.0 | 23.0 | 0.00 | 0.00 | 0.00 | 32 | 1015.6 |
| 20260503182950 | 61 | 235 | 10.0 | 23.0 | 0.00 | 0.00 | 0.00 | 33 | 1015.6 |
| 20260503182850 | 61 | 193 | 10.0 | 23.0 | 0.00 | 0.00 | 0.00 | 31 | 1015.6 |
| 20260503182750 | 61 | 212 | 13.0 | 23.0 | 0.00 | 0.00 | 0.00 | 32 | 1015.6 |
| 20260503182650 | 61 | 200 | 11.0 | 23.0 | 0.00 | 0.00 | 0.00 | 32 | 1015.6 |
| 20260503182550 | 61 | 186 | 12.0 | 23.0 | 0.00 | 0.00 | 0.00 | 31 | 1015.6 |
| 20260503182450 | 61 | 207 | 10.0 | 23.0 | 0.00 | 0.00 | 0.00 | 33 | 1015.6 |
| 20260503182350 | 61 | 176 | 7.0 | 23.0 | 0.00 | 0.00 | 0.00 | 32 | 1015.6 |
| 20260503182250 | 61 | 187 | 6.0 | 23.0 | 0.00 | 0.00 | 0.00 | 31 | 1016.0 |
| 20260503182150 | 61 | 238 | 12.0 | 23.0 | 0.00 | 0.00 | 0.00 | 31 | 1016.0 |
| 20260503182050 | 62 | 200 | 8.0 | 20.0 | 0.00 | 0.00 | 0.00 | 31 | 1016.0 |
| 20260503181950 | 62 | 214 | 4.0 | 25.0 | 0.00 | 0.00 | 0.00 | 32 | 1016.0 |
| 20260503181850 | 62 | 222 | 5.0 | 25.0 | 0.00 | 0.00 | 0.00 | 31 | 1016.0 |
| 20260503181750 | 61 | 208 | 4.0 | 25.0 | 0.00 | 0.00 | 0.00 | 32 | 1016.0 |
| 20260503181650 | 61 | 308 | 7.0 | 25.0 | 0.00 | 0.00 | 0.00 | 33 | 1016.0 |
| 20260503181550 | 61 | 207 | 10.0 | 25.0 | 0.00 | 0.00 | 0.00 | 34 | 1016.0 |
| 20260503181450 | 61 | 214 | 8.0 | 25.0 | 0.00 | 0.00 | 0.00 | 35 | 1016.0 |
| 20260503181350 | 61 | 148 | 5.0 | 25.0 | 0.00 | 0.00 | 0.00 | 35 | 1016.0 |
| 20260503181250 | 61 | 183 | 7.0 | 25.0 | 0.00 | 0.00 | 0.00 | 34 | 1016.0 |
| 20260503181150 | 61 | 203 | 7.0 | 25.0 | 0.00 | 0.00 | 0.00 | 34 | 1016.0 |
| 20260503181050 | 60 | 221 | 14.0 | 25.0 | 0.00 | 0.00 | 0.00 | 31 | 1016.0 |
| 20260503180950 | 61 | 174 | 10.0 | 18.0 | 0.00 | 0.00 | 0.00 | 33 | 1016.0 |
| 20260503180850 | 61 | 221 | 8.0 | 15.0 | 0.00 | 0.00 | 0.00 | 32 | 1016.0 |
| 20260503180750 | 61 | 233 | 9.0 | 15.0 | 0.00 | 0.00 | 0.00 | 33 | 1016.0 |
| 20260503180650 | 62 | 201 | 7.0 | 15.0 | 0.00 | 0.00 | 0.00 | 33 | 1016.0 |
| 20260503180550 | 61 | 342 | 6.0 | 22.0 | 0.00 | 0.00 | 0.00 | 31 | 1016.0 |
| 20260503180450 | 62 | 188 | 7.0 | 22.0 | 0.00 | 0.00 | 0.00 | 31 | 1016.3 |
| 20260503180350 | 62 | 107 | 5.0 | 22.0 | 0.00 | 0.00 | 0.00 | 31 | 1016.0 |
| 20260503180250 | 61 | 195 | 5.0 | 22.0 | 0.00 | 0.00 | 0.00 | 32 | 1016.0 |
| 20260503180150 | 61 | 215 | 5.0 | 22.0 | 0.00 | 0.00 | 0.00 | 32 | 1016.3 |
| 20260503180050 | 61 | 204 | 5.0 | 22.0 | 0.00 | 0.00 | 0.00 | 33 | 1016.3 |
| 20260503175950 | 61 | 210 | 4.0 | 22.0 | 0.00 | 0.00 | 0.00 | 34 | 1016.0 |
| 20260503175850 | 60 | 217 | 7.0 | 22.0 | 0.00 | 0.00 | 0.00 | 33 | 1016.0 |
| 20260503175750 | 60 | 252 | 9.0 | 22.0 | 0.00 | 0.00 | 0.00 | 33 | 1016.3 |
| 20260503175650 | 60 | 205 | 13.0 | 22.0 | 0.00 | 0.00 | 0.00 | 32 | 1016.3 |
| 20260503175550 | 60 | 232 | 11.0 | 21.0 | 0.00 | 0.00 | 0.00 | 33 | 1016.0 |
| 20260503175450 | 61 | 195 | 11.0 | 21.0 | 0.00 | 0.00 | 0.00 | 32 | 1016.0 |
| 20260503175350 | 60 | 176 | 11.0 | 21.0 | 0.00 | 0.00 | 0.00 | 32 | 1016.3 |
| 20260503175250 | 61 | 291 | 11.0 | 21.0 | 0.00 | 0.00 | 0.00 | 31 | 1016.3 |
| 20260503175150 | 61 | 198 | 8.0 | 20.0 | 0.00 | 0.00 | 0.00 | 34 | 1016.3 |
| 20260503175050 | 61 | 274 | 8.0 | 20.0 | 0.00 | 0.00 | 0.00 | 33 | 1016.3 |
| 20260503174950 | 61 | 195 | 7.0 | 20.0 | 0.00 | 0.00 | 0.00 | 34 | 1016.3 |
| 20260503174850 | 60 | 183 | 11.0 | 21.0 | 0.00 | 0.00 | 0.00 | 32 | 1016.3 |
| 20260503174750 | 61 | 232 | 13.0 | 21.0 | 0.00 | 0.00 | 0.00 | 34 | 1016.3 |
| 20260503174650 | 61 | 195 | 11.0 | 21.0 | 0.00 | 0.00 | 0.00 | 32 | 1016.3 |
| 20260503174550 | 61 | 195 | 7.0 | 21.0 | 0.00 | 0.00 | 0.00 | 32 | 1016.3 |
| 20260503174450 | 61 | 187 | 11.0 | 21.0 | 0.00 | 0.00 | 0.00 | 30 | 1016.3 |
| 20260503174350 | 61 | 191 | 7.0 | 21.0 | 0.00 | 0.00 | 0.00 | 32 | 1016.3 |
| 20260503174250 | 61 | 225 | 10.0 | 21.0 | 0.00 | 0.00 | 0.00 | 32 | 1016.3 |
| 20260503174150 | 61 | 146 | 6.0 | 21.0 | 0.00 | 0.00 | 0.00 | 33 | 1016.3 |
| 20260503174050 | 60 | 222 | 11.0 | 21.0 | 0.00 | 0.00 | 0.00 | 32 | 1016.3 |
| 20260503173950 | 60 | 214 | 13.0 | 21.0 | 0.00 | 0.00 | 0.00 | 32 | 1016.3 |
| 20260503173850 | 61 | 188 | 12.0 | 17.0 | 0.00 | 0.00 | 0.00 | 32 | 1016.3 |
| 20260503173750 | 61 | 208 | 8.0 | 16.0 | 0.00 | 0.00 | 0.00 | 31 | 1016.3 |
| 20260503173650 | 61 | 203 | 7.0 | 12.0 | 0.00 | 0.00 | 0.00 | 32 | 1016.3 |
| 20260503173550 | 61 | 190 | 7.0 | 20.0 | 0.00 | 0.00 | 0.00 | 32 | 1016.3 |
| 20260503173450 | 61 | 210 | 6.0 | 20.0 | 0.00 | 0.00 | 0.00 | 33 | 1016.3 |
| 20260503173350 | 61 | 246 | 6.0 | 20.0 | 0.00 | 0.00 | 0.00 | 31 | 1016.3 |
| 20260503173250 | 61 | 319 | 6.0 | 20.0 | 0.00 | 0.00 | 0.00 | 32 | 1016.3 |
| 20260503173150 | 61 | 190 | 7.0 | 20.0 | 0.00 | 0.00 | 0.00 | 31 | 1016.6 |
| 20260503173050 | 61 | 222 | 4.0 | 20.0 | 0.00 | 0.00 | 0.00 | 32 | 1016.3 |
| 20260503172950 | 61 | 200 | 6.0 | 20.0 | 0.00 | 0.00 | 0.00 | 32 | 1016.6 |
| 20260503172850 | 61 | 187 | 4.0 | 20.0 | 0.00 | 0.00 | 0.00 | 34 | 1016.6 |
| 20260503172750 | 61 | 262 | 4.0 | 20.0 | 0.00 | 0.00 | 0.00 | 35 | 1016.3 |
| 20260503172650 | 61 | 203 | 9.0 | 20.0 | 0.00 | 0.00 | 0.00 | 33 | 1016.3 |
| 20260503172550 | 61 | 321 | 4.0 | 16.0 | 0.00 | 0.00 | 0.00 | 33 | 1016.6 |
| 20260503172450 | 61 | 242 | 7.0 | 16.0 | 0.00 | 0.00 | 0.00 | 32 | 1016.6 |
| 20260503172350 | 61 | 188 | 10.0 | 17.0 | 0.00 | 0.00 | 0.00 | 32 | 1016.6 |
| 20260503172250 | 61 | 197 | 5.0 | 17.0 | 0.00 | 0.00 | 0.00 | 31 | 1016.6 |
| 20260503172150 | 61 | 188 | 7.0 | 17.0 | 0.00 | 0.00 | 0.00 | 31 | 1016.6 |
| 20260503172050 | 61 | 190 | 9.0 | 17.0 | 0.00 | 0.00 | 0.00 | 32 | 1016.6 |
| 20260503171950 | 61 | 240 | 4.0 | 17.0 | 0.00 | 0.00 | 0.00 | 32 | 1016.6 |
| 20260503171850 | 61 | 264 | 6.0 | 17.0 | 0.00 | 0.00 | 0.00 | 33 | 1016.6 |
| 20260503171750 | 61 | 183 | 5.0 | 17.0 | 0.00 | 0.00 | 0.00 | 33 | 1016.6 |
| 20260503171650 | 61 | 221 | 7.0 | 17.0 | 0.00 | 0.00 | 0.00 | 34 | 1016.6 |
| 20260503171550 | 61 | 225 | 7.0 | 17.0 | 0.00 | 0.00 | 0.00 | 32 | 1016.6 |
| 20260503171450 | 61 | 172 | 7.0 | 17.0 | 0.00 | 0.00 | 0.00 | 30 | 1016.6 |
| 20260503171350 | 61 | 245 | 6.0 | 16.0 | 0.00 | 0.00 | 0.00 | 31 | 1016.6 |
| 20260503171250 | 61 | 188 | 9.0 | 16.0 | 0.00 | 0.00 | 0.00 | 30 | 1016.6 |
| 20260503171150 | 61 | 142 | 8.0 | 15.0 | 0.00 | 0.00 | 0.00 | 33 | 1016.6 |
| 20260503171050 | 62 | 186 | 4.0 | 12.0 | 0.00 | 0.00 | 0.00 | 35 | 1016.6 |
| 20260503170950 | 61 | 294 | 5.0 | 12.0 | 0.00 | 0.00 | 0.00 | 34 | 1016.6 |
| 20260503170850 | 62 | 174 | 3.0 | 12.0 | 0.00 | 0.00 | 0.00 | 35 | 1016.6 |
| 20260503170750 | 61 | 218 | 4.0 | 12.0 | 0.00 | 0.00 | 0.00 | 36 | 1016.6 |